Zarling — WDD7883 — position and weather

sailwx.info

Track history (hours):
 
Tides and Currents Weather Stations Pressure Air Temp Water Temp Dewpoint Dewpoint Depression Visibility Wind Speed Wind Dir Waves Ship Positions

Zarling

Owner: Clean Rivers Co-op, Portland, OR. More information available from US FCC via Universal Licensing System.

Last reported at 2017-Jan-17 04:31 UTC. Time now 2017-Jan-17 04:55 UTC.
Position N 46°12' W 123°23'.

Length 12 m.

Type: Pollution control. MMSI: 3699126.

Date/timePositionNaut miles runAvg speedWind from/ knotsBaromVisibWave heightAir tempDewpointWater temp
2017-Jan-17 04:31N 46°12' W 123°23'492188.8
2017-Jan-17 04:30N 45°33' W 122°42'342633.2
2017-Jan-17 04:29N 46°05' W 122°56'7208.5
2017-Jan-17 04:27N 46°10' W 123°03'7 7.9
2017-Jan-17 03:32N 46°05' W 122°56'7211.8
2017-Jan-17 03:30N 46°10' W 123°03'4011087.6
2017-Jan-17 03:30N 45°33' W 122°42'4042.3
2017-Jan-17 02:33N 46°10' W 123°03'7457.1
2017-Jan-17 02:32N 46°05' W 122°56'201263.5
2017-Jan-17 02:31N 46°12' W 123°23'49686.7
2017-Jan-17 02:27N 45°33' W 122°42'4044.7
2017-Jan-17 01:33N 46°10' W 123°03'407587.3
2017-Jan-17 01:33N 45°33' W 122°42'342883.9
2017-Jan-17 01:32N 46°05' W 122°56'2064.4
2017-Jan-17 01:13N 46°12' W 123°23'4972.5
2017-Jan-17 00:33N 45°33' W 122°42'342576.7
2017-Jan-17 00:32N 46°05' W 122°56'7173.7
2017-Jan-17 00:30N 46°10' W 123°03'14189.6
2017-Jan-17 00:25N 46°12' W 123°23'1415.9
2017-Jan-16 23:33N 46°10' W 123°03'14584.2
2017-Jan-16 23:31N 46°12' W 123°23'49673.5
2017-Jan-16 23:27N 45°33' W 122°42'342816.9
2017-Jan-16 23:26N 46°05' W 122°56'0 0.0
2017-Jan-16 22:32N 46°05' W 122°56'7173.7
2017-Jan-16 22:30N 46°10' W 123°03'40879.0
2017-Jan-16 22:27N 45°33' W 122°42'491733.7
2017-Jan-16 22:25N 46°12' W 123°23'1415.9
2017-Jan-16 21:33N 46°10' W 123°03'7898.5
2017-Jan-16 21:32N 46°05' W 122°56'34897.2
2017-Jan-16 21:30N 45°33' W 122°42'0 0.0
2017-Jan-16 20:33N 45°33' W 122°42'4010297.0
2017-Jan-16 20:33N 46°10' W 123°03'745.9
2017-Jan-16 20:23N 46°05' W 122°56'3440.6
2017-Jan-16 19:34N 45°33' W 122°42'341593.8
2017-Jan-16 19:32N 46°05' W 122°56'7174.9
2017-Jan-16 19:30N 46°10' W 123°03'0 0.0
2017-Jan-16 18:33N 46°10' W 123°03'3511371.0
2017-Jan-16 18:33N 45°37' W 122°48'432085.1
2017-Jan-16 18:31N 46°12' W 123°23'20239.5
2017-Jan-16 18:26N 46°05' W 122°56'2932.4
2017-Jan-16 17:33N 45°37' W 122°48'291843.6
2017-Jan-16 17:32N 46°05' W 122°56'778.7
2017-Jan-16 17:27N 46°10' W 123°03'3538.9
2017-Jan-16 16:33N 45°37' W 122°48'356259.2
2017-Jan-16 16:33N 46°10' W 123°03'7120.6
2017-Jan-16 16:29N 46°05' W 122°56'20123.6
2017-Jan-16 16:19N 46°12' W 123°23'4355.7
2017-Jan-16 15:33N 45°37' W 122°48'355690.2
2017-Jan-16 15:33N 46°10' W 123°03'7840.5
2017-Jan-16 15:32N 46°05' W 122°56'20295.5
2017-Jan-16 15:28N 46°12' W 123°23'1415.0
2017-Jan-16 14:32N 46°10' W 123°03'75211.4
2017-Jan-16 14:32N 46°05' W 122°56'29839.4
2017-Jan-16 14:30N 45°37' W 122°48'431196.6
2017-Jan-16 14:28N 46°12' W 123°23'4346.8
2017-Jan-16 13:33N 45°37' W 122°48'352554.8
2017-Jan-16 13:32N 46°10' W 123°03'78685.7
2017-Jan-16 13:32N 46°05' W 122°56'20169.6
2017-Jan-16 13:25N 46°12' W 123°23'4349.6
2017-Jan-16 12:33N 45°37' W 122°48'291911.9
2017-Jan-16 12:32N 46°05' W 122°56'7148.9
2017-Jan-16 12:29N 46°10' W 123°03'14116.0
2017-Jan-16 12:22N 46°12' W 123°23'2024.5
2017-Jan-16 11:32N 46°05' W 122°56'7151.5
2017-Jan-16 11:29N 46°10' W 123°03'35934.2
2017-Jan-16 11:27N 45°37' W 122°48'43506.1
2017-Jan-16 11:22N 46°12' W 123°23'1416.8
2017-Jan-16 10:32N 46°10' W 123°03'74342.8
2017-Jan-16 10:32N 46°05' W 122°56'29819.4
2017-Jan-16 10:30N 45°37' W 122°48'431275.8
2017-Jan-16 10:28N 46°12' W 123°23'4346.8
2017-Jan-16 09:33N 45°37' W 122°48'352554.8
2017-Jan-16 09:32N 46°10' W 123°03'7141.6
2017-Jan-16 09:29N 46°05' W 122°56'201017.9
2017-Jan-16 09:28N 46°12' W 123°23'4346.8
2017-Jan-16 08:33N 45°37' W 122°48'291947.9
2017-Jan-16 08:32N 46°05' W 122°56'774.0
2017-Jan-16 08:26N 46°10' W 123°03'14194.7
2017-Jan-16 08:22N 46°12' W 123°23'4352.6
2017-Jan-16 07:33N 45°37' W 122°48'291877.1
2017-Jan-16 07:32N 46°05' W 122°56'20293.1
2017-Jan-16 07:28N 46°12' W 123°23'14487.8
2017-Jan-16 07:26N 46°10' W 123°03'3539.2
2017-Jan-16 06:33N 45°37' W 122°48'352721.4
2017-Jan-16 06:32N 46°10' W 123°03'73722.4
2017-Jan-16 06:32N 46°05' W 122°56'2929.1
2017-Jan-16 05:33N 45°37' W 122°48'353129.6
2017-Jan-16 05:33N 46°10' W 123°03'72004.4
2017-Jan-16 05:32N 46°05' W 122°56'201032.2
2017-Jan-16 05:31N 46°12' W 123°23'4344.4
2017-Jan-16 04:33N 45°37' W 122°48'352845.1
2017-Jan-16 04:32N 46°10' W 123°03'7137.1
2017-Jan-16 04:29N 46°05' W 122°56'2930.7
2017-Jan-16 03:33N 45°37' W 122°48'35648.6
2017-Jan-16 03:30N 46°10' W 123°03'745.0
2017-Jan-16 03:20N 46°05' W 122°56'2936.5
2017-Jan-16 02:33N 45°37' W 122°48'357824.0
2017-Jan-16 02:33N 46°10' W 123°03'7685.7
2017-Jan-16 02:32N 46°05' W 122°56'20296.7
2017-Jan-16 02:28N 46°12' W 123°23'4346.8
2017-Jan-16 01:33N 45°37' W 122°48'291911.9
2017-Jan-16 01:32N 46°05' W 122°56'7153.3
2017-Jan-16 01:29N 46°10' W 123°03'14193.2
2017-Jan-16 01:25N 46°12' W 123°23'1415.9
2017-Jan-16 00:32N 46°10' W 123°03'72171.4
2017-Jan-16 00:32N 46°05' W 122°56'29819.4
2017-Jan-16 00:30N 45°37' W 122°48'43232.1
2017-Jan-16 00:19N 46°12' W 123°23'4356.0
2017-Jan-15 23:33N 45°37' W 122°48'352911.2
2017-Jan-15 23:32N 46°10' W 123°03'72368.8
2017-Jan-15 23:32N 46°05' W 122°56'201046.9
2017-Jan-15 23:31N 46°12' W 123°23'1414.3
2017-Jan-15 22:32N 46°10' W 123°03'35394.9
2017-Jan-15 22:27N 45°37' W 122°48'291911.9
2017-Jan-15 22:26N 46°05' W 122°56'0 0.0
2017-Jan-15 21:32N 46°05' W 122°56'774.9
2017-Jan-15 21:26N 46°10' W 123°03'14605.3
2017-Jan-15 21:25N 46°12' W 123°23'432708.2
2017-Jan-15 21:24N 45°37' W 122°48'0 0.0
2017-Jan-15 20:33N 45°37' W 122°48'353294.3
2017-Jan-15 20:33N 46°10' W 123°03'71861.2
2017-Jan-15 20:32N 46°05' W 122°56'7 7.3
2017-Jan-15 19:33N 46°10' W 123°03'71737.1
2017-Jan-15 19:32N 46°05' W 122°56'29806.6
2017-Jan-15 19:30N 45°37' W 122°48'43509.5
2017-Jan-15 19:25N 46°12' W 123°23'4349.5
2017-Jan-15 18:33N 45°37' W 122°48'35313.7
2017-Jan-15 18:27N 46°10' W 123°03'71861.2
2017-Jan-15 18:26N 46°05' W 122°56'7 8.1
2017-Jan-15 17:33N 46°10' W 123°03'72895.2
2017-Jan-15 17:32N 46°05' W 122°56'29806.6
2017-Jan-15 17:30N 45°37' W 122°48'43182.0
2017-Jan-15 17:16N 46°12' W 123°23'2027.9
2017-Jan-15 16:32N 46°05' W 122°56'29800.3
2017-Jan-15 16:30N 45°37' W 122°48'353477.3
2017-Jan-15 16:30N 46°10' W 123°03'3537.0
2017-Jan-15 15:33N 45°37' W 122°48'353209.8
2017-Jan-15 15:33N 46°10' W 123°03'71737.1
2017-Jan-15 15:32N 46°05' W 122°56'2929.1
2017-Jan-15 14:33N 45°37' W 122°48'353576.7
2017-Jan-15 14:33N 46°10' W 123°03'71628.6
2017-Jan-15 14:32N 46°05' W 122°56'20163.2
2017-Jan-15 14:25N 46°12' W 123°23'4349.8
2017-Jan-15 13:33N 45°37' W 122°48'292024.3
2017-Jan-15 13:32N 46°05' W 122°56'7157.0
2017-Jan-15 13:30N 46°10' W 123°03'1461.0
2017-Jan-15 13:16N 46°12' W 123°23'4360.4
2017-Jan-15 12:33N 45°37' W 122°48'353477.3
2017-Jan-15 12:33N 46°10' W 123°03'71532.8
2017-Jan-15 12:32N 46°05' W 122°56'20163.6
2017-Jan-15 12:25N 46°12' W 123°23'4349.8
2017-Jan-15 11:33N 45°37' W 122°48'353576.7
2017-Jan-15 11:33N 46°10' W 123°03'71447.6
2017-Jan-15 11:32N 46°05' W 122°56'20842.4
2017-Jan-15 11:31N 46°12' W 123°23'4344.6
2017-Jan-15 10:33N 45°37' W 122°48'353681.9
2017-Jan-15 10:33N 46°10' W 123°03'71447.6
2017-Jan-15 10:32N 46°05' W 122°56'2042.9
2017-Jan-15 10:04N 46°12' W 123°23'2038.7
2017-Jan-15 09:32N 46°05' W 122°56'20832.8
2017-Jan-15 09:31N 46°12' W 123°23'14679.0
2017-Jan-15 09:30N 46°10' W 123°03'35863.3
2017-Jan-15 09:27N 45°37' W 122°48'0 0.0
2017-Jan-15 08:33N 45°37' W 122°48'35587.7
2017-Jan-15 08:30N 46°10' W 123°03'14474.0
2017-Jan-15 08:28N 46°12' W 123°23'20771.4
2017-Jan-15 08:26N 46°05' W 122°56'0 0.0
2017-Jan-15 07:32N 46°05' W 122°56'29819.4
2017-Jan-15 07:30N 45°37' W 122°48'35217.3
2017-Jan-15 07:21N 46°10' W 123°03'14133.6
2017-Jan-15 07:14N 46°12' W 123°23'4358.3
2017-Jan-15 06:30N 45°37' W 122°48'291985.4
2017-Jan-15 06:29N 46°05' W 122°56'7161.8
2017-Jan-15 06:27N 46°10' W 123°03'1468.3
2017-Jan-15 06:14N 46°12' W 123°23'2029.0
2017-Jan-15 05:32N 46°05' W 122°56'29800.3
2017-Jan-15 05:30N 45°37' W 122°48'354316.7
2017-Jan-15 05:30N 46°10' W 123°03'0 0.0
2017-Jan-15 04:33N 46°10' W 123°03'35840.2
2017-Jan-15 04:30N 45°37' W 122°48'29445.0
2017-Jan-15 04:26N 46°05' W 122°56'20206.4
2017-Jan-15 04:20N 46°12' W 123°23'4354.5
2017-Jan-15 03:33N 45°37' W 122°48'291911.9
2017-Jan-15 03:32N 46°05' W 122°56'7169.2
2017-Jan-15 03:30N 46°10' W 123°03'3536.9
2017-Jan-15 02:33N 45°37' W 122°48'354038.2
2017-Jan-15 02:33N 46°10' W 123°03'71240.8
2017-Jan-15 02:32N 46°05' W 122°56'7 7.3
2017-Jan-15 01:33N 46°10' W 123°03'71085.7
2017-Jan-15 01:32N 46°05' W 122°56'29812.9
2017-Jan-15 01:30N 45°37' W 122°48'43377.4
2017-Jan-15 01:23N 46°12' W 123°23'4351.3
2017-Jan-15 00:33N 45°37' W 122°48'354172.8
2017-Jan-15 00:33N 46°10' W 123°03'71042.3
2017-Jan-15 00:32N 46°05' W 122°56'2082.0
2017-Jan-15 00:17N 46°12' W 123°23'4358.2
2017-Jan-14 23:33N 45°37' W 122°48'29446.9
2017-Jan-14 23:29N 46°05' W 122°56'7164.9
2017-Jan-14 23:27N 46°10' W 123°03'142644.4
2017-Jan-14 23:26N 46°12' W 123°23'4348.3
2017-Jan-14 22:33N 45°37' W 122°48'354470.8
2017-Jan-14 22:33N 46°10' W 123°03'71132.9
2017-Jan-14 22:32N 46°05' W 122°56'2929.1
2017-Jan-14 21:33N 45°37' W 122°48'354316.7
2017-Jan-14 21:33N 46°10' W 123°03'767.7
2017-Jan-14 21:26N 46°05' W 122°56'2068.2
2017-Jan-14 21:08N 46°12' W 123°23'2033.9
2017-Jan-14 20:32N 46°05' W 122°56'29819.4
2017-Jan-14 20:30N 45°37' W 122°48'3585.5
2017-Jan-14 20:06N 46°10' W 123°03'3564.0
2017-Jan-14 19:33N 45°37' W 122°48'354470.8
2017-Jan-14 19:33N 46°10' W 123°03'71042.3
2017-Jan-14 19:32N 46°05' W 122°56'2929.1
2017-Jan-14 18:33N 45°37' W 122°48'35601.8
2017-Jan-14 18:30N 46°10' W 123°03'7125.3
2017-Jan-14 18:26N 46°05' W 122°56'2932.4
2017-Jan-14 17:33N 45°37' W 122°48'355007.3
2017-Jan-14 17:33N 46°10' W 123°03'7126.5
2017-Jan-14 17:29N 46°05' W 122°56'7 7.7
2017-Jan-14 16:33N 46°10' W 123°03'7868.6
2017-Jan-14 16:32N 46°05' W 122°56'29806.6
2017-Jan-14 16:30N 45°37' W 122°48'433675.4
2017-Jan-14 16:29N 46°12' W 123°23'4345.7
2017-Jan-14 15:33N 45°37' W 122°48'354814.8
2017-Jan-14 15:33N 46°10' W 123°03'7125.3
2017-Jan-14 15:29N 46°05' W 122°56'2930.7
2017-Jan-14 14:33N 45°37' W 122°48'355690.2
2017-Jan-14 14:33N 46°10' W 123°03'7789.6
2017-Jan-14 14:32N 46°05' W 122°56'2929.1
2017-Jan-14 13:33N 45°37' W 122°48'355442.8
2017-Jan-14 13:33N 46°10' W 123°03'7840.5
2017-Jan-14 13:32N 46°05' W 122°56'20137.5
2017-Jan-14 13:23N 46°12' W 123°23'1416.5
2017-Jan-14 12:33N 46°10' W 123°03'71002.2
2017-Jan-14 12:32N 46°05' W 122°56'29812.9
2017-Jan-14 12:30N 45°37' W 122°48'432968.6
2017-Jan-14 12:29N 46°12' W 123°23'1414.8
2017-Jan-14 11:33N 46°10' W 123°03'7898.5
2017-Jan-14 11:32N 46°05' W 122°56'29338.5
2017-Jan-14 11:27N 45°37' W 122°48'3538.3
2017-Jan-14 10:33N 46°10' W 123°03'7868.6
2017-Jan-14 10:32N 46°05' W 122°56'29806.6
2017-Jan-14 10:30N 45°37' W 122°48'43677.0
2017-Jan-14 10:26N 46°12' W 123°23'4348.6
2017-Jan-14 09:33N 45°37' W 122°48'291877.1
2017-Jan-14 09:33N 46°05' W 122°56'7158.9
2017-Jan-14 09:30N 46°10' W 123°03'3536.8
2017-Jan-14 08:33N 45°37' W 122°48'355961.1
2017-Jan-14 08:33N 46°10' W 123°03'7840.5
2017-Jan-14 08:32N 46°05' W 122°56'20136.5
2017-Jan-14 08:23N 46°12' W 123°23'4351.5
2017-Jan-14 07:33N 45°37' W 122°48'291588.3
2017-Jan-14 07:32N 46°05' W 122°56'7176.1
2017-Jan-14 07:30N 46°10' W 123°03'3536.8
2017-Jan-14 06:33N 45°37' W 122°48'355961.1
2017-Jan-14 06:33N 46°10' W 123°03'7789.6
2017-Jan-14 06:32N 46°05' W 122°56'2051.1
2017-Jan-14 06:08N 46°12' W 123°23'4373.1
2017-Jan-14 05:33N 45°37' W 122°48'355442.8
2017-Jan-14 05:33N 46°10' W 123°03'7840.5
2017-Jan-14 05:32N 46°05' W 122°56'20205.3
2017-Jan-14 05:26N 46°12' W 123°23'4348.4
2017-Jan-14 04:33N 45°37' W 122°48'291985.4
2017-Jan-14 04:32N 46°05' W 122°56'778.7
2017-Jan-14 04:27N 46°10' W 123°03'3538.9
2017-Jan-14 03:33N 45°37' W 122°48'355961.1
2017-Jan-14 03:33N 46°10' W 123°03'7814.3
2017-Jan-14 03:32N 46°05' W 122°56'7 1.8
2017-Jan-13 23:33N 46°10' W 123°03'7668.1
2017-Jan-13 23:32N 46°05' W 122°56'29825.9
2017-Jan-13 23:30N 45°37' W 122°48'43137.3
2017-Jan-13 23:11N 46°12' W 123°23'4367.2
2017-Jan-13 22:33N 45°37' W 122°48'357824.0
2017-Jan-13 22:33N 46°10' W 123°03'7744.5
2017-Jan-13 22:32N 46°05' W 122°56'2058.3
2017-Jan-13 22:11N 46°12' W 123°23'1421.8
2017-Jan-13 21:33N 46°10' W 123°03'35745.1
2017-Jan-13 21:30N 45°37' W 122°48'29494.0
2017-Jan-13 21:27N 46°05' W 122°56'2079.8
2017-Jan-13 21:11N 46°12' W 123°23'4367.3
2017-Jan-13 20:33N 45°37' W 122°48'3511380.3
2017-Jan-13 20:33N 46°10' W 123°03'7651.4
2017-Jan-13 20:32N 46°05' W 122°56'2081.9
2017-Jan-13 20:17N 46°12' W 123°23'4358.2
2017-Jan-13 19:33N 45°37' W 122°48'292150.9
2017-Jan-13 19:32N 46°05' W 122°56'20135.5
2017-Jan-13 19:23N 46°12' W 123°23'14154.6
2017-Jan-13 19:18N 46°10' W 123°03'3546.7
2017-Jan-13 18:33N 45°37' W 122°48'291877.1
2017-Jan-13 18:32N 46°05' W 122°56'7186.1
2017-Jan-13 18:30N 46°10' W 123°03'0 0.0
2017-Jan-13 17:33N 46°10' W 123°03'7635.5
2017-Jan-13 17:32N 46°05' W 122°56'29337.4
2017-Jan-13 17:27N 45°37' W 122°48'0 0.0
2017-Jan-13 16:30N 45°37' W 122°48'35655.4
2017-Jan-13 16:27N 46°10' W 123°03'7606.0
2017-Jan-13 16:26N 46°05' W 122°56'0 0.0
2017-Jan-13 15:32N 46°05' W 122°56'7184.8
2017-Jan-13 15:30N 46°10' W 123°03'35768.0
2017-Jan-13 15:27N 45°37' W 122°48'0 0.0
2017-Jan-13 14:33N 45°37' W 122°48'3510432.0
2017-Jan-13 14:33N 46°10' W 123°03'7606.0
2017-Jan-13 14:32N 46°05' W 122°56'2929.1
2017-Jan-13 13:33N 45°37' W 122°48'3512518.4
2017-Jan-13 13:33N 46°10' W 123°03'14231.5
2017-Jan-13 13:29N 46°12' W 123°23'2012214.3
2017-Jan-13 13:29N 46°05' W 122°56'2930.7
2017-Jan-13 12:33N 45°37' W 122°48'3515648.0
2017-Jan-13 12:33N 46°10' W 123°03'7579.0
2017-Jan-13 12:32N 46°05' W 122°56'20414.0
2017-Jan-13 12:29N 46°12' W 123°23'4345.8
2017-Jan-13 11:33N 45°37' W 122°48'3515648.0
2017-Jan-13 11:33N 46°10' W 123°03'14228.4
2017-Jan-13 11:29N 46°12' W 123°23'2014657.1
2017-Jan-13 11:29N 46°05' W 122°56'2930.7
2017-Jan-13 10:33N 45°37' W 122°48'3515648.0
2017-Jan-13 10:33N 46°10' W 123°03'7566.5
2017-Jan-13 10:32N 46°05' W 122°56'20416.4
2017-Jan-13 10:29N 46°12' W 123°23'1414.9
2017-Jan-13 09:33N 46°10' W 123°03'7592.2
2017-Jan-13 09:32N 46°05' W 122°56'29812.9
2017-Jan-13 09:30N 45°37' W 122°48'433216.0
2017-Jan-13 09:29N 46°12' W 123°23'4345.8
2017-Jan-13 08:33N 45°37' W 122°48'291877.1
2017-Jan-13 08:32N 46°05' W 122°56'7193.0
2017-Jan-13 08:30N 46°10' W 123°03'1444.9
2017-Jan-13 08:11N 46°12' W 123°23'4367.3
2017-Jan-13 07:33N 45°37' W 122°48'291911.9
2017-Jan-13 07:32N 46°05' W 122°56'7195.9
2017-Jan-13 07:30N 46°10' W 123°03'3536.7
2017-Jan-13 06:33N 45°37' W 122°48'3517883.4
2017-Jan-13 06:33N 46°10' W 123°03'7579.0
2017-Jan-13 06:32N 46°05' W 122°56'20205.3
2017-Jan-13 06:26N 46°12' W 123°23'4348.4
2017-Jan-13 05:33N 45°37' W 122°48'3517883.4
2017-Jan-13 05:33N 46°10' W 123°03'141168.4
2017-Jan-13 05:32N 46°12' W 123°23'2073285.7
2017-Jan-13 05:32N 46°05' W 122°56'2929.1
2017-Jan-13 04:33N 45°37' W 122°48'3515648.0
2017-Jan-13 04:33N 46°10' W 123°03'7114.3
2017-Jan-13 04:29N 46°05' W 122°56'2930.7
2017-Jan-13 03:33N 45°37' W 122°48'3517883.4
2017-Jan-13 03:33N 46°10' W 123°03'14227.3
2017-Jan-13 03:29N 46°12' W 123°23'20200.2
2017-Jan-13 03:23N 46°05' W 122°56'2934.4
2017-Jan-13 02:33N 45°37' W 122°48'3515648.0
2017-Jan-13 02:33N 46°10' W 123°03'7114.8
2017-Jan-13 02:29N 46°05' W 122°56'20136.7
2017-Jan-13 02:20N 46°12' W 123°23'4354.5
2017-Jan-13 01:33N 45°37' W 122°48'3541727.9
2017-Jan-13 01:33N 46°10' W 123°03'7542.9
2017-Jan-13 01:32N 46°05' W 122°56'20411.7
2017-Jan-13 01:29N 46°12' W 123°23'4345.8
2017-Jan-13 00:33N 45°37' W 122°48'3525036.7
2017-Jan-13 00:33N 46°10' W 123°03'7521.1
2017-Jan-13 00:32N 46°05' W 122°56'20136.7
2017-Jan-13 00:23N 46°12' W 123°23'2023.9
2017-Jan-12 23:32N 46°05' W 122°56'20416.4
2017-Jan-12 23:29N 46°12' W 123°23'431206.0
2017-Jan-12 23:27N 45°37' W 122°48'3520864.0
2017-Jan-12 23:27N 46°10' W 123°03'3538.7
2017-Jan-12 22:33N 45°37' W 122°48'35125183.7
2017-Jan-12 22:33N 46°10' W 123°03'7501.1
2017-Jan-12 22:32N 46°05' W 122°56'20205.3
2017-Jan-12 22:26N 46°12' W 123°23'2022.6
2017-Jan-12 21:32N 46°05' W 122°56'29812.9
2017-Jan-12 21:30N 45°37' W 122°48'3531295.9
2017-Jan-12 21:30N 46°10' W 123°03'1444.7
2017-Jan-12 21:11N 46°12' W 123°23'1420.3
2017-Jan-12 20:30N 46°10' W 123°03'7482.5
2017-Jan-12 20:29N 46°05' W 122°56'29819.4
2017-Jan-12 20:27N 45°37' W 122°48'43117.7
2017-Jan-12 20:05N 46°12' W 123°23'4380.0
2017-Jan-12 19:33N 45°37' W 122°48'354316.7
2017-Jan-12 19:33N 46°10' W 123°03'71085.7
2017-Jan-12 19:32N 46°05' W 122°56'2929.1
2017-Jan-12 18:33N 45°37' W 122°48'353912.0
2017-Jan-12 18:33N 46°10' W 123°03'71085.7
2017-Jan-12 18:32N 46°05' W 122°56'7 7.3
2017-Jan-12 17:33N 46°10' W 123°03'35840.2
2017-Jan-12 17:30N 45°37' W 122°48'291877.1
2017-Jan-12 17:29N 46°05' W 122°56'2068.2
2017-Jan-12 17:11N 46°12' W 123°23'0 0.0
2017-Jan-12 16:32N 46°12' W 123°23'431169.4
2017-Jan-12 16:30N 45°37' W 122°48'354172.8
2017-Jan-12 16:30N 46°10' W 123°03'7126.5
2017-Jan-12 16:26N 46°05' W 122°56'2930.7
2017-Jan-12 15:30N 45°37' W 122°48'354470.8
2017-Jan-12 15:30N 46°10' W 123°03'71002.2
2017-Jan-12 15:29N 46°05' W 122°56'2068.4
2017-Jan-12 15:11N 46°12' W 123°23'4367.4
2017-Jan-12 14:33N 45°37' W 122°48'291811.2
2017-Jan-12 14:32N 46°05' W 122°56'7168.1
2017-Jan-12 14:30N 46°10' W 123°03'14132.6
2017-Jan-12 14:23N 46°12' W 123°23'1416.5
2017-Jan-12 13:33N 46°10' W 123°03'71132.9
2017-Jan-12 13:32N 46°05' W 122°56'29800.3
2017-Jan-12 13:30N 45°37' W 122°48'43200.5
2017-Jan-12 13:17N 46°12' W 123°23'4354.6
2017-Jan-12 12:30N 45°37' W 122°48'354316.7
2017-Jan-12 12:30N 46°10' W 123°03'142283.8
2017-Jan-12 12:29N 46°12' W 123°23'2024428.6
2017-Jan-12 12:29N 46°05' W 122°56'2930.7
2017-Jan-12 11:33N 45°37' W 122°48'354172.8
2017-Jan-12 11:33N 46°10' W 123°03'71085.7
2017-Jan-12 11:32N 46°05' W 122°56'20416.4
2017-Jan-12 11:29N 46°12' W 123°23'1414.8
2017-Jan-12 10:33N 46°10' W 123°03'35377.1
2017-Jan-12 10:27N 45°37' W 122°48'43379.3
2017-Jan-12 10:20N 46°12' W 123°23'2014657.1
2017-Jan-12 10:20N 46°05' W 122°56'7 9.1
2017-Jan-12 09:33N 46°10' W 123°03'7126.5
2017-Jan-12 09:29N 46°05' W 122°56'29819.4
2017-Jan-12 09:27N 45°37' W 122°48'43262.1
2017-Jan-12 09:17N 46°12' W 123°23'4358.3
2017-Jan-12 08:33N 45°37' W 122°48'433087.3
2017-Jan-12 08:32N 46°12' W 123°23'2018321.4
2017-Jan-12 08:32N 46°05' W 122°56'7172.6
2017-Jan-12 08:30N 46°10' W 123°03'3536.9
2017-Jan-12 07:33N 45°37' W 122°48'355216.0
2017-Jan-12 07:33N 46°10' W 123°03'142093.6
2017-Jan-12 07:32N 46°12' W 123°23'20396.2
2017-Jan-12 07:29N 46°05' W 122°56'2930.7
2017-Jan-12 06:33N 45°37' W 122°48'29247.6
2017-Jan-12 06:26N 46°05' W 122°56'7172.6
2017-Jan-12 06:24N 46°10' W 123°03'1467.5
2017-Jan-12 06:11N 46°12' W 123°23'4367.4
2017-Jan-12 05:33N 45°37' W 122°48'29441.2
2017-Jan-12 05:29N 46°05' W 122°56'751.0
2017-Jan-12 05:21N 46°10' W 123°03'3543.8
2017-Jan-12 04:33N 45°37' W 122°48'291947.9
2017-Jan-12 04:32N 46°05' W 122°56'778.7
2017-Jan-12 04:27N 46°10' W 123°03'14130.8
2017-Jan-12 04:20N 46°12' W 123°23'4354.5
2017-Jan-12 03:33N 45°37' W 122°48'29248.8
2017-Jan-12 03:26N 46°05' W 122°56'7219.0
2017-Jan-12 03:24N 46°10' W 123°03'14913.5
2017-Jan-12 03:23N 46°12' W 123°23'4351.3
2017-Jan-12 02:33N 45°37' W 122°48'29439.3
2017-Jan-12 02:29N 46°05' W 122°56'7220.8
2017-Jan-12 02:27N 46°10' W 123°03'14211.1
2017-Jan-12 02:23N 46°12' W 123°23'4351.3
2017-Jan-12 01:33N 45°37' W 122°48'29439.3
2017-Jan-12 01:29N 46°05' W 122°56'779.7
2017-Jan-12 01:24N 46°10' W 123°03'141932.4
2017-Jan-12 01:23N 46°12' W 123°23'2023.9
2017-Jan-12 00:32N 46°05' W 122°56'7172.6
2017-Jan-12 00:30N 46°10' W 123°03'141860.9
2017-Jan-12 00:29N 46°12' W 123°23'431187.4
2017-Jan-12 00:27N 45°37' W 122°48'0 0.0
2017-Jan-11 23:33N 45°37' W 122°48'433150.4
2017-Jan-11 23:32N 46°12' W 123°23'2036642.8
2017-Jan-11 23:32N 46°05' W 122°56'7174.9
2017-Jan-11 23:30N 46°10' W 123°03'3536.8
2017-Jan-11 22:33N 45°37' W 122°48'291877.1
2017-Jan-11 22:32N 46°05' W 122°56'7176.1
2017-Jan-11 22:30N 46°10' W 123°03'141932.4
2017-Jan-11 22:29N 46°12' W 123°23'1414.9
2017-Jan-11 21:33N 46°10' W 123°03'14881.5
2017-Jan-11 21:32N 46°12' W 123°23'2018321.4
2017-Jan-11 21:32N 46°05' W 122°56'29806.6
2017-Jan-11 21:30N 45°37' W 122°48'4344.5
2017-Jan-11 20:32N 46°12' W 123°23'2024428.6
2017-Jan-11 20:32N 46°05' W 122°56'29800.3
2017-Jan-11 20:30N 45°37' W 122°48'35740.7
2017-Jan-11 20:27N 46°10' W 123°03'3538.6
2017-Jan-11 19:33N 45°37' W 122°48'35732.1
2017-Jan-11 19:30N 46°10' W 123°03'7394.8
2017-Jan-11 19:29N 46°05' W 122°56'20436.2
2017-Jan-11 19:26N 46°12' W 123°23'1415.8
2017-Jan-11 18:33N 46°10' W 123°03'359629.5
2017-Jan-11 18:33N 45°37' W 122°48'43671.2
2017-Jan-11 18:29N 46°12' W 123°23'2014657.1
2017-Jan-11 18:29N 46°05' W 122°56'7 7.8
2017-Jan-11 17:33N 46°10' W 123°03'35652.0
2017-Jan-11 17:30N 45°37' W 122°48'433150.4
2017-Jan-11 17:29N 46°12' W 123°23'2024428.6
2017-Jan-11 17:29N 46°05' W 122°56'7 7.8
2017-Jan-11 16:33N 46°10' W 123°03'359629.5
2017-Jan-11 16:33N 45°37' W 122°48'291985.4
2017-Jan-11 16:32N 46°05' W 122°56'20137.8
2017-Jan-11 16:23N 46°12' W 123°23'1416.7
2017-Jan-11 15:33N 46°10' W 123°03'35642.0
2017-Jan-11 15:30N 45°37' W 122°48'433087.3
2017-Jan-11 15:29N 46°12' W 123°23'20404.9
2017-Jan-11 15:26N 46°05' W 122°56'7 8.2
2017-Jan-11 14:33N 46°10' W 123°03'35333.8
2017-Jan-11 14:27N 45°37' W 122°48'291947.9
2017-Jan-11 14:26N 46°05' W 122°56'20421.2
2017-Jan-11 14:23N 46°12' W 123°23'1415.8
2017-Jan-11 13:30N 46°10' W 123°03'3510432.0
2017-Jan-11 13:30N 45°37' W 122°48'29250.0
2017-Jan-11 13:23N 46°05' W 122°56'7 8.7
2017-Jan-11 12:33N 46°10' W 123°03'7394.8
2017-Jan-11 12:32N 46°05' W 122°56'29806.6
2017-Jan-11 12:30N 45°37' W 122°48'433087.3
2017-Jan-11 12:29N 46°12' W 123°23'1415.0
2017-Jan-11 11:33N 46°10' W 123°03'358345.6
2017-Jan-11 11:33N 45°37' W 122°48'433216.0
2017-Jan-11 11:32N 46°12' W 123°23'2018321.4
2017-Jan-11 11:32N 46°05' W 122°56'2929.1
2017-Jan-11 10:33N 45°37' W 122°48'433026.8
2017-Jan-11 10:32N 46°12' W 123°23'2018321.4
2017-Jan-11 10:32N 46°05' W 122°56'7236.9
2017-Jan-11 10:30N 46°10' W 123°03'0 0.0
2017-Jan-11 09:33N 46°10' W 123°03'357824.0
2017-Jan-11 09:33N 45°37' W 122°48'433150.4
2017-Jan-11 09:32N 46°12' W 123°23'20391.9
2017-Jan-11 09:29N 46°05' W 122°56'7 7.8
2017-Jan-11 08:33N 46°10' W 123°03'357824.0
2017-Jan-11 08:33N 45°37' W 122°48'433026.8
2017-Jan-11 08:32N 46°12' W 123°23'2014657.1
2017-Jan-11 08:32N 46°05' W 122°56'7 7.3
2017-Jan-11 07:33N 46°10' W 123°03'144567.6
2017-Jan-11 07:32N 46°12' W 123°23'2018321.4
2017-Jan-11 07:32N 46°05' W 122°56'29819.4
2017-Jan-11 07:30N 45°37' W 122°48'0 0.0
2017-Jan-11 06:33N 45°37' W 122°48'3515648.0
2017-Jan-11 06:33N 46°10' W 123°03'7566.5
2017-Jan-11 06:32N 46°05' W 122°56'7 7.3
2017-Jan-11 05:33N 46°10' W 123°03'7116.3
2017-Jan-11 05:29N 46°05' W 122°56'29846.2
2017-Jan-11 05:27N 45°37' W 122°48'43136.2
2017-Jan-11 05:08N 46°12' W 123°23'4373.3
2017-Jan-11 04:33N 45°37' W 122°48'291843.6
2017-Jan-11 04:32N 46°05' W 122°56'7191.6
2017-Jan-11 04:30N 46°10' W 123°03'0 0.0
2017-Jan-11 03:33N 46°10' W 123°03'7554.4
2017-Jan-11 03:32N 46°05' W 122°56'29819.4
2017-Jan-11 03:30N 45°37' W 122°48'43162.8
2017-Jan-11 03:14N 46°12' W 123°23'1420.3
2017-Jan-11 02:33N 46°10' W 123°03'7566.5
2017-Jan-11 02:32N 46°05' W 122°56'29825.9
2017-Jan-11 02:30N 45°37' W 122°48'0 0.0
2017-Jan-11 01:33N 45°37' W 122°48'3520864.0
2017-Jan-11 01:33N 46°10' W 123°03'7542.9
2017-Jan-11 01:32N 46°05' W 122°56'7 7.3
2017-Jan-11 00:33N 46°10' W 123°03'35719.4
2017-Jan-11 00:30N 45°37' W 122°48'291985.4
2017-Jan-11 00:29N 46°05' W 122°56'2930.7
2017-Jan-10 23:33N 45°37' W 122°48'3525036.7
2017-Jan-10 23:33N 46°10' W 123°03'7521.1
2017-Jan-10 23:32N 46°05' W 122°56'2082.0
2017-Jan-10 23:17N 46°12' W 123°23'4358.2
2017-Jan-10 22:33N 45°37' W 122°48'3525036.7
2017-Jan-10 22:33N 46°10' W 123°03'7620.4
2017-Jan-10 22:32N 46°05' W 122°56'7 7.0
2017-Jan-10 21:30N 46°10' W 123°03'7635.5
2017-Jan-10 21:29N 46°05' W 122°56'29329.8
2017-Jan-10 21:24N 45°37' W 122°48'43376.5
2017-Jan-10 21:17N 46°12' W 123°23'4358.2
2017-Jan-10 20:33N 45°37' W 122°48'3562591.9
2017-Jan-10 20:33N 46°10' W 123°03'7501.1
2017-Jan-10 20:32N 46°05' W 122°56'2081.9
2017-Jan-10 20:17N 46°12' W 123°23'4358.3
2017-Jan-10 19:33N 45°37' W 122°48'3525036.7
2017-Jan-10 19:33N 46°10' W 123°03'14123.4
2017-Jan-10 19:26N 46°12' W 123°23'20409.4
2017-Jan-10 19:23N 46°05' W 122°56'7 8.6
2017-Jan-10 18:33N 46°10' W 123°03'141046.7
2017-Jan-10 18:32N 46°12' W 123°23'20203.0
2017-Jan-10 18:26N 46°05' W 122°56'29812.9
2017-Jan-10 18:24N 45°37' W 122°48'0 0.0
2017-Jan-10 17:30N 45°37' W 122°48'3531295.9
2017-Jan-10 17:30N 46°10' W 123°03'7491.6
2017-Jan-10 17:29N 46°05' W 122°56'20418.8
2017-Jan-10 17:26N 46°12' W 123°23'4345.8
2017-Jan-10 16:30N 45°37' W 122°48'3562591.9
2017-Jan-10 16:30N 46°10' W 123°03'7491.6
2017-Jan-10 16:29N 46°05' W 122°56'2068.2
2017-Jan-10 16:11N 46°12' W 123°23'4367.4
2017-Jan-10 15:33N 45°37' W 122°48'3562591.9
2017-Jan-10 15:33N 46°10' W 123°03'141116.5
2017-Jan-10 15:32N 46°12' W 123°23'20200.8
2017-Jan-10 15:26N 46°05' W 122°56'0 0.0
2017-Jan-10 14:32N 46°05' W 122°56'29832.6
2017-Jan-10 14:30N 45°37' W 122°48'3536.6
2017-Jan-10 13:33N 46°10' W 123°03'7521.1
2017-Jan-10 13:32N 46°05' W 122°56'2045.2
2017-Jan-10 13:05N 46°12' W 123°23'2036.9
2017-Jan-10 12:32N 46°05' W 122°56'7213.6
2017-Jan-10 12:30N 46°10' W 123°03'3562591.9
2017-Jan-10 12:30N 45°37' W 122°48'43662.5
2017-Jan-10 12:26N 46°12' W 123°23'4348.4
2017-Jan-10 11:33N 45°37' W 122°48'292064.8
2017-Jan-10 11:32N 46°05' W 122°56'7203.6
2017-Jan-10 11:30N 46°10' W 123°03'141004.9
2017-Jan-10 11:29N 46°12' W 123°23'1414.9
2017-Jan-10 10:33N 46°10' W 123°03'14985.2
2017-Jan-10 10:32N 46°12' W 123°23'431196.6
2017-Jan-10 10:30N 45°37' W 122°48'291985.4
2017-Jan-10 10:29N 46°05' W 122°56'7 7.7
2017-Jan-10 09:33N 46°10' W 123°03'7501.1
2017-Jan-10 09:32N 46°05' W 122°56'2081.6
2017-Jan-10 09:17N 46°12' W 123°23'1419.0
2017-Jan-10 08:33N 46°10' W 123°03'3525036.7
2017-Jan-10 08:33N 45°37' W 122°48'433150.4
2017-Jan-10 08:32N 46°12' W 123°23'2014657.1
2017-Jan-10 08:32N 46°05' W 122°56'7 7.4
2017-Jan-10 07:33N 46°10' W 123°03'7482.5
2017-Jan-10 07:32N 46°05' W 122°56'20423.6
2017-Jan-10 07:29N 46°12' W 123°23'4345.8
2017-Jan-10 06:33N 45°37' W 122°48'432912.6
2017-Jan-10 06:32N 46°12' W 123°23'14401.9
2017-Jan-10 06:30N 46°10' W 123°03'743.6
2017-Jan-10 06:20N 46°05' W 122°56'2025.5
2017-Jan-10 05:32N 46°12' W 123°23'14395.6
2017-Jan-10 05:30N 46°10' W 123°03'3562591.9
2017-Jan-10 05:30N 45°37' W 122°48'292024.3
2017-Jan-10 05:29N 46°05' W 122°56'7 7.7
2017-Jan-10 04:33N 46°10' W 123°03'3562591.9
2017-Jan-10 04:33N 45°37' W 122°48'433087.3
2017-Jan-10 04:32N 46°12' W 123°23'2036642.8
2017-Jan-10 04:32N 46°05' W 122°56'7 7.4
2017-Jan-10 03:33N 46°10' W 123°03'7457.1
2017-Jan-10 03:32N 46°05' W 122°56'29211.1
2017-Jan-10 03:24N 45°37' W 122°48'0 0.0
2017-Jan-10 02:33N 45°37' W 122°48'433216.0
2017-Jan-10 02:32N 46°12' W 123°23'20201.9
2017-Jan-10 02:26N 46°05' W 122°56'7215.3
2017-Jan-10 02:24N 46°10' W 123°03'0 0.0
2017-Jan-10 01:33N 46°10' W 123°03'3525036.7
2017-Jan-10 01:33N 45°37' W 122°48'291911.9
2017-Jan-10 01:32N 46°05' W 122°56'7 7.4
2017-Jan-10 00:33N 46°10' W 123°03'7441.6
2017-Jan-10 00:32N 46°05' W 122°56'29819.4
2017-Jan-10 00:30N 45°37' W 122°48'43260.8
2017-Jan-10 00:20N 46°12' W 123°23'4354.6
2017-Jan-09 23:33N 45°37' W 122°48'35532.7
2017-Jan-09 23:29N 46°10' W 123°03'748.4
2017-Jan-09 23:20N 46°05' W 122°56'7 9.2
2017-Jan-09 22:33N 46°10' W 123°03'3517883.4
2017-Jan-09 22:33N 45°37' W 122°48'29439.3
2017-Jan-09 22:29N 46°05' W 122°56'2930.7
2017-Jan-09 21:33N 45°37' W 122°48'291877.1
2017-Jan-09 21:32N 46°05' W 122°56'787.7
2017-Jan-09 21:27N 46°10' W 123°03'1448.1
2017-Jan-09 21:10N 46°12' W 123°23'4370.1
2017-Jan-09 20:33N 45°37' W 122°48'291947.9
2017-Jan-09 20:32N 46°05' W 122°56'7217.1
2017-Jan-09 20:30N 46°10' W 123°03'1458.0
2017-Jan-09 20:16N 46°12' W 123°23'1419.7
2017-Jan-09 19:33N 46°10' W 123°03'35658.9
2017-Jan-09 19:30N 45°37' W 122°48'29456.8
2017-Jan-09 19:26N 46°05' W 122°56'2054.2
2017-Jan-09 19:04N 46°12' W 123°23'4383.8
2017-Jan-09 18:33N 45°37' W 122°48'291911.9
2017-Jan-09 18:32N 46°05' W 122°56'7222.7
2017-Jan-09 18:30N 46°10' W 123°03'1499.1
2017-Jan-09 18:22N 46°12' W 123°23'1417.3
2017-Jan-09 17:33N 46°10' W 123°03'7400.9
2017-Jan-09 17:32N 46°05' W 122°56'29806.6
2017-Jan-09 17:30N 45°37' W 122°48'43180.5
2017-Jan-09 17:16N 46°12' W 123°23'1419.7
2017-Jan-09 16:33N 46°10' W 123°03'7394.8
2017-Jan-09 16:32N 46°05' W 122°56'20285.2
2017-Jan-09 16:28N 46°12' W 123°23'433026.8
2017-Jan-09 16:27N 45°37' W 122°48'3538.8
2017-Jan-09 15:33N 46°10' W 123°03'3513909.3
2017-Jan-09 15:33N 45°37' W 122°48'291843.6
2017-Jan-09 15:32N 46°05' W 122°56'20893.7
2017-Jan-09 15:31N 46°12' W 123°23'1413.8
2017-Jan-09 14:30N 46°10' W 123°03'357824.0
2017-Jan-09 14:30N 45°37' W 122°48'29445.0
2017-Jan-09 14:26N 46°05' W 122°56'7 8.2
2017-Jan-09 13:33N 46°10' W 123°03'359629.5
2017-Jan-09 13:33N 45°37' W 122°48'29251.8
2017-Jan-09 13:26N 46°05' W 122°56'20842.5
2017-Jan-09 13:25N 46°12' W 123°23'1416.3
2017-Jan-09 12:33N 46°10' W 123°03'358345.6
2017-Jan-09 12:33N 45°37' W 122°48'292064.8
2017-Jan-09 12:32N 46°05' W 122°56'7 7.4
2017-Jan-09 11:33N 46°10' W 123°03'3512518.4
2017-Jan-09 11:33N 45°37' W 122°48'291877.1
2017-Jan-09 11:32N 46°05' W 122°56'2090.9
2017-Jan-09 11:19N 46°12' W 123°23'4356.3
2017-Jan-09 10:33N 45°37' W 122°48'291911.9
2017-Jan-09 10:32N 46°05' W 122°56'7230.6
2017-Jan-09 10:30N 46°10' W 123°03'14335.0
2017-Jan-09 10:28N 46°12' W 123°23'4347.0
2017-Jan-09 09:33N 45°37' W 122°48'29445.0
2017-Jan-09 09:29N 46°05' W 122°56'20276.5
2017-Jan-09 09:25N 46°12' W 123°23'1488.3
2017-Jan-09 09:15N 46°10' W 123°03'710.1
2017-Jan-09 08:32N 46°05' W 122°56'7234.7
2017-Jan-09 08:30N 46°10' W 123°03'357824.0
2017-Jan-09 08:30N 45°37' W 122°48'2929.7
2017-Jan-09 07:32N 46°05' W 122°56'7234.7
2017-Jan-09 07:30N 46°10' W 123°03'35645.3
2017-Jan-09 07:27N 45°37' W 122°48'43485.4
2017-Jan-09 07:22N 46°12' W 123°23'4352.8
2017-Jan-09 06:33N 45°37' W 122°48'431094.8
2017-Jan-09 06:31N 46°12' W 123°23'142184.5
2017-Jan-09 06:30N 46°10' W 123°03'7103.8
2017-Jan-09 06:26N 46°05' W 122°56'2932.4
2017-Jan-09 05:33N 45°37' W 122°48'292107.0
2017-Jan-09 05:32N 46°05' W 122°56'7232.7
2017-Jan-09 05:30N 46°10' W 123°03'1497.4
2017-Jan-09 05:22N 46°12' W 123°23'4352.9
2017-Jan-09 04:33N 45°37' W 122°48'29435.6
2017-Jan-09 04:29N 46°05' W 122°56'755.7
2017-Jan-09 04:21N 46°10' W 123°03'0 0.0
2017-Jan-09 03:30N 46°10' W 123°03'356588.6
2017-Jan-09 03:30N 45°37' W 122°48'291985.4
2017-Jan-09 03:29N 46°05' W 122°56'2930.7
2017-Jan-09 02:33N 45°37' W 122°48'291947.9
2017-Jan-09 02:32N 46°05' W 122°56'7329.8
2017-Jan-09 02:31N 46°10' W 123°03'7 7.0
2017-Jan-09 01:29N 46°05' W 122°56'7342.9
2017-Jan-09 01:28N 46°10' W 123°03'352663.5
2017-Jan-09 01:27N 45°37' W 122°48'0 0.0
2017-Jan-09 00:33N 45°37' W 122°48'291911.9
2017-Jan-09 00:32N 46°05' W 122°56'7321.7
2017-Jan-09 00:31N 46°10' W 123°03'145582.6
2017-Jan-09 00:31N 46°12' W 123°23'4344.7
2017-Jan-08 23:33N 45°37' W 122°48'291911.9
2017-Jan-08 23:32N 46°05' W 122°56'759.2
2017-Jan-08 23:25N 46°10' W 123°03'145582.6
2017-Jan-08 23:25N 46°12' W 123°23'2022.0
2017-Jan-08 22:29N 46°05' W 122°56'291474.9
2017-Jan-08 22:28N 45°37' W 122°48'3513909.3
2017-Jan-08 22:28N 46°10' W 123°03'7 7.8
2017-Jan-08 21:32N 46°05' W 122°56'291518.2
2017-Jan-08 21:31N 45°37' W 122°48'438576.0
2017-Jan-08 21:31N 46°12' W 123°23'14290.4
2017-Jan-08 21:28N 46°10' W 123°03'7 7.8
2017-Jan-08 20:32N 46°05' W 122°56'29413.0
2017-Jan-08 20:28N 45°37' W 122°48'35695.5
2017-Jan-08 20:25N 46°10' W 123°03'1446.0
2017-Jan-08 20:07N 46°12' W 123°23'1423.3
2017-Jan-08 19:31N 46°10' W 123°03'7245.8
2017-Jan-08 19:29N 46°05' W 122°56'29418.0
2017-Jan-08 19:25N 45°37' W 122°48'3538.6
2017-Jan-08 18:31N 46°10' W 123°03'35732.1
2017-Jan-08 18:28N 45°37' W 122°48'29890.0
2017-Jan-08 18:26N 46°05' W 122°56'20117.4
2017-Jan-08 18:16N 46°12' W 123°23'2028.0
2017-Jan-08 17:32N 46°05' W 122°56'291540.9
2017-Jan-08 17:31N 45°37' W 122°48'353383.3
2017-Jan-08 17:31N 46°10' W 123°03'1435.4
2017-Jan-08 17:07N 46°12' W 123°23'2035.3
2017-Jan-08 16:32N 46°05' W 122°56'291540.9
2017-Jan-08 16:31N 45°37' W 122°48'438576.0
2017-Jan-08 16:31N 46°12' W 123°23'14253.8
2017-Jan-08 16:28N 46°10' W 123°03'7 7.9
2017-Jan-08 15:32N 46°05' W 122°56'20883.0
2017-Jan-08 15:31N 46°12' W 123°23'43941.3
2017-Jan-08 15:28N 45°37' W 122°48'35165.4
2017-Jan-08 15:16N 46°10' W 123°03'710.0
2017-Jan-08 14:32N 46°05' W 122°56'291588.3
2017-Jan-08 14:31N 45°37' W 122°48'439649.1
2017-Jan-08 14:31N 46°12' W 123°23'14132.9
2017-Jan-08 14:25N 46°10' W 123°03'7 8.3
2017-Jan-08 13:32N 46°05' W 122°56'20893.7
2017-Jan-08 13:31N 46°12' W 123°23'142955.5
2017-Jan-08 13:31N 46°10' W 123°03'35398.7
2017-Jan-08 13:25N 45°37' W 122°48'2932.4
2017-Jan-08 12:32N 46°05' W 122°56'291540.9
2017-Jan-08 12:31N 45°37' W 122°48'437350.8
2017-Jan-08 12:31N 46°12' W 123°23'143864.9
2017-Jan-08 12:31N 46°10' W 123°03'0 0.0
2017-Jan-08 11:33N 46°10' W 123°03'7542.9
2017-Jan-08 11:32N 46°05' W 122°56'29107.1
2017-Jan-08 11:16N 45°37' W 122°48'0 0.0
2017-Jan-08 10:25N 45°37' W 122°48'35523.8
2017-Jan-08 10:21N 46°10' W 123°03'7 8.9
2017-Jan-08 09:32N 46°05' W 122°56'291518.2
2017-Jan-08 09:31N 45°37' W 122°48'352052.2
2017-Jan-08 09:30N 46°10' W 123°03'1458.8
2017-Jan-08 09:16N 46°12' W 123°23'1419.6
2017-Jan-08 08:33N 46°10' W 123°03'7521.1
2017-Jan-08 08:32N 46°05' W 122°56'29241.8
2017-Jan-08 08:25N 45°37' W 122°48'43771.8
2017-Jan-08 08:22N 46°12' W 123°23'1417.2
2017-Jan-08 07:33N 46°10' W 123°03'7510.9
2017-Jan-08 07:32N 46°05' W 122°56'291518.2
2017-Jan-08 07:31N 45°37' W 122°48'3536.0
2017-Jan-08 06:33N 46°10' W 123°03'7465.3
2017-Jan-08 06:32N 46°05' W 122°56'291540.9
2017-Jan-08 06:31N 45°37' W 122°48'43209.5
2017-Jan-08 06:19N 46°12' W 123°23'1418.3
2017-Jan-08 05:33N 46°10' W 123°03'7112.3
2017-Jan-08 05:29N 46°05' W 122°56'291518.2
2017-Jan-08 05:28N 45°37' W 122°48'43804.0
2017-Jan-08 05:25N 46°12' W 123°23'1416.2
2017-Jan-08 04:33N 46°10' W 123°03'351052.0
2017-Jan-08 04:31N 45°37' W 122°48'29352.4
2017-Jan-08 04:26N 46°05' W 122°56'7 8.2
2017-Jan-08 03:33N 46°10' W 123°03'35913.7
2017-Jan-08 03:31N 45°37' W 122°48'291042.8
2017-Jan-08 03:29N 46°05' W 122°56'20117.4
2017-Jan-08 03:19N 46°12' W 123°23'1418.3
2017-Jan-08 02:33N 46°10' W 123°03'35913.7
2017-Jan-08 02:31N 45°37' W 122°48'291032.4
2017-Jan-08 02:29N 46°05' W 122°56'0 0.0
2017-Jan-08 01:32N 46°05' W 122°56'291274.6
2017-Jan-08 01:31N 45°37' W 122°48'35164.1
2017-Jan-08 01:18N 46°10' W 123°03'7 9.5
2017-Jan-08 00:32N 46°05' W 122°56'291243.9
2017-Jan-08 00:31N 45°37' W 122°48'43843.5
2017-Jan-08 00:28N 46°12' W 123°23'141225.4
2017-Jan-08 00:27N 46°10' W 123°03'7 7.9
2017-Jan-07 23:32N 46°05' W 122°56'291274.6
2017-Jan-07 23:31N 45°37' W 122°48'35561.4
2017-Jan-07 23:27N 46°10' W 123°03'0 0.0
2017-Jan-07 22:33N 46°10' W 123°03'7420.3
2017-Jan-07 22:32N 46°05' W 122°56'291274.6
2017-Jan-07 22:31N 45°37' W 122°48'43142.0
2017-Jan-07 22:13N 46°12' W 123°23'1421.1
2017-Jan-07 21:33N 46°10' W 123°03'7457.1
2017-Jan-07 21:32N 46°05' W 122°56'29392.6
2017-Jan-07 21:28N 45°37' W 122°48'43170.9
2017-Jan-07 21:13N 46°12' W 123°23'1421.1
2017-Jan-07 20:33N 46°10' W 123°03'7482.5
2017-Jan-07 20:32N 46°05' W 122°56'29392.6
2017-Jan-07 20:28N 45°37' W 122°48'2930.9
2017-Jan-07 19:32N 46°05' W 122°56'29392.6
2017-Jan-07 19:28N 45°37' W 122°48'43154367.2
2017-Jan-07 19:28N 46°12' W 123°23'141288.3
2017-Jan-07 19:27N 46°10' W 123°03'7 7.9
2017-Jan-07 18:32N 46°05' W 122°56'7211.8
2017-Jan-07 18:30N 46°10' W 123°03'35869.3
2017-Jan-07 18:28N 45°37' W 122°48'2931.0
2017-Jan-07 17:32N 46°05' W 122°56'291243.9
2017-Jan-07 17:31N 45°37' W 122°48'353053.3
2017-Jan-07 17:30N 46°10' W 123°03'0 0.0
2017-Jan-07 16:33N 46°10' W 123°03'7441.6
2017-Jan-07 16:32N 46°05' W 122°56'29398.6
2017-Jan-07 16:28N 45°37' W 122°48'3538.2
2017-Jan-07 15:33N 46°10' W 123°03'35900.6
2017-Jan-07 15:31N 45°37' W 122°48'4351461.7
2017-Jan-07 15:31N 46°12' W 123°23'20747.9
2017-Jan-07 15:29N 46°05' W 122°56'7 7.8
2017-Jan-07 14:33N 46°10' W 123°03'7449.3
2017-Jan-07 14:32N 46°05' W 122°56'291229.1
2017-Jan-07 14:31N 45°37' W 122°48'43214.1
2017-Jan-07 14:19N 46°12' W 123°23'2026.2
2017-Jan-07 13:32N 46°05' W 122°56'291274.6
2017-Jan-07 13:31N 45°37' W 122°48'35673.0
2017-Jan-07 13:28N 46°10' W 123°03'14285.5
2017-Jan-07 13:25N 46°12' W 123°23'2023.2
2017-Jan-07 12:32N 46°05' W 122°56'7286.3
2017-Jan-07 12:31N 46°10' W 123°03'35732.1
2017-Jan-07 12:28N 45°37' W 122°48'43284.3
2017-Jan-07 12:19N 46°12' W 123°23'2026.2
2017-Jan-07 11:32N 46°05' W 122°56'20883.0
2017-Jan-07 11:31N 46°12' W 123°23'43154367.2
2017-Jan-07 11:31N 45°37' W 122°48'3517883.4
2017-Jan-07 11:31N 46°10' W 123°03'0 0.0
2017-Jan-07 10:33N 46°10' W 123°03'35875.4
2017-Jan-07 10:31N 45°37' W 122°48'291042.8
2017-Jan-07 10:29N 46°05' W 122°56'0 0.0
2017-Jan-07 09:32N 46°05' W 122°56'29391.1
2017-Jan-07 09:28N 45°37' W 122°48'43852.9
2017-Jan-07 09:25N 46°12' W 123°23'141732.5
2017-Jan-07 09:24N 46°10' W 123°03'7 8.3
2017-Jan-07 08:32N 46°05' W 122°56'291259.0
2017-Jan-07 08:31N 45°37' W 122°48'35585.0
2017-Jan-07 08:27N 46°10' W 123°03'1448.0
2017-Jan-07 08:10N 46°12' W 123°23'1423.0
2017-Jan-07 07:33N 46°10' W 123°03'7107.7
2017-Jan-07 07:29N 46°05' W 122°56'291134.5
2017-Jan-07 07:28N 45°37' W 122°48'3538.3
2017-Jan-07 06:33N 46°10' W 123°03'7427.2
2017-Jan-07 06:32N 46°05' W 122°56'291290.5
2017-Jan-07 06:31N 45°37' W 122°48'3536.3
2017-Jan-07 05:33N 46°10' W 123°03'7372.2
2017-Jan-07 05:32N 46°05' W 122°56'29394.0
2017-Jan-07 05:28N 45°37' W 122°48'  
Track history (hours):
 
Tides and Currents Weather Stations Pressure Air Temp Water Temp Dewpoint Dewpoint Depression Visibility Wind Speed Wind Dir Waves Ship Positions

Zarling

Owner: Clean Rivers Co-op, Portland, OR. More information available from US FCC via Universal Licensing System.

Last reported at 2017-Jan-17 04:31 UTC. Time now 2017-Jan-17 04:55 UTC.
Position N 46°12' W 123°23'.

Length 12 m.

Type: Pollution control. MMSI: 3699126.

Date/timePositionNaut miles runAvg speedWind from/ knotsBaromVisibWave heightAir tempDewpointWater temp
2017-Jan-17 04:31N 46°12' W 123°23'492188.8
2017-Jan-17 04:30N 45°33' W 122°42'342633.2
2017-Jan-17 04:29N 46°05' W 122°56'7208.5
2017-Jan-17 04:27N 46°10' W 123°03'7 7.9
2017-Jan-17 03:32N 46°05' W 122°56'7211.8
2017-Jan-17 03:30N 46°10' W 123°03'4011087.6
2017-Jan-17 03:30N 45°33' W 122°42'4042.3
2017-Jan-17 02:33N 46°10' W 123°03'7457.1
2017-Jan-17 02:32N 46°05' W 122°56'201263.5
2017-Jan-17 02:31N 46°12' W 123°23'49686.7
2017-Jan-17 02:27N 45°33' W 122°42'4044.7
2017-Jan-17 01:33N 46°10' W 123°03'407587.3
2017-Jan-17 01:33N 45°33' W 122°42'342883.9
2017-Jan-17 01:32N 46°05' W 122°56'2064.4
2017-Jan-17 01:13N 46°12' W 123°23'4972.5
2017-Jan-17 00:33N 45°33' W 122°42'342576.7
2017-Jan-17 00:32N 46°05' W 122°56'7173.7
2017-Jan-17 00:30N 46°10' W 123°03'14189.6
2017-Jan-17 00:25N 46°12' W 123°23'1415.9
2017-Jan-16 23:33N 46°10' W 123°03'14584.2
2017-Jan-16 23:31N 46°12' W 123°23'49673.5
2017-Jan-16 23:27N 45°33' W 122°42'342816.9
2017-Jan-16 23:26N 46°05' W 122°56'0 0.0
2017-Jan-16 22:32N 46°05' W 122°56'7173.7
2017-Jan-16 22:30N 46°10' W 123°03'40879.0
2017-Jan-16 22:27N 45°33' W 122°42'491733.7
2017-Jan-16 22:25N 46°12' W 123°23'1415.9
2017-Jan-16 21:33N 46°10' W 123°03'7898.5
2017-Jan-16 21:32N 46°05' W 122°56'34897.2
2017-Jan-16 21:30N 45°33' W 122°42'0 0.0
2017-Jan-16 20:33N 45°33' W 122°42'4010297.0
2017-Jan-16 20:33N 46°10' W 123°03'745.9
2017-Jan-16 20:23N 46°05' W 122°56'3440.6
2017-Jan-16 19:34N 45°33' W 122°42'341593.8
2017-Jan-16 19:32N 46°05' W 122°56'7174.9
2017-Jan-16 19:30N 46°10' W 123°03'0 0.0
2017-Jan-16 18:33N 46°10' W 123°03'3511371.0
2017-Jan-16 18:33N 45°37' W 122°48'432085.1
2017-Jan-16 18:31N 46°12' W 123°23'20239.5
2017-Jan-16 18:26N 46°05' W 122°56'2932.4
2017-Jan-16 17:33N 45°37' W 122°48'291843.6
2017-Jan-16 17:32N 46°05' W 122°56'778.7
2017-Jan-16 17:27N 46°10' W 123°03'3538.9
2017-Jan-16 16:33N 45°37' W 122°48'356259.2
2017-Jan-16 16:33N 46°10' W 123°03'7120.6
2017-Jan-16 16:29N 46°05' W 122°56'20123.6
2017-Jan-16 16:19N 46°12' W 123°23'4355.7
2017-Jan-16 15:33N 45°37' W 122°48'355690.2
2017-Jan-16 15:33N 46°10' W 123°03'7840.5
2017-Jan-16 15:32N 46°05' W 122°56'20295.5
2017-Jan-16 15:28N 46°12' W 123°23'1415.0
2017-Jan-16 14:32N 46°10' W 123°03'75211.4
2017-Jan-16 14:32N 46°05' W 122°56'29839.4
2017-Jan-16 14:30N 45°37' W 122°48'431196.6
2017-Jan-16 14:28N 46°12' W 123°23'4346.8
2017-Jan-16 13:33N 45°37' W 122°48'352554.8
2017-Jan-16 13:32N 46°10' W 123°03'78685.7
2017-Jan-16 13:32N 46°05' W 122°56'20169.6
2017-Jan-16 13:25N 46°12' W 123°23'4349.6
2017-Jan-16 12:33N 45°37' W 122°48'291911.9
2017-Jan-16 12:32N 46°05' W 122°56'7148.9
2017-Jan-16 12:29N 46°10' W 123°03'14116.0
2017-Jan-16 12:22N 46°12' W 123°23'2024.5
2017-Jan-16 11:32N 46°05' W 122°56'7151.5
2017-Jan-16 11:29N 46°10' W 123°03'35934.2
2017-Jan-16 11:27N 45°37' W 122°48'43506.1
2017-Jan-16 11:22N 46°12' W 123°23'1416.8
2017-Jan-16 10:32N 46°10' W 123°03'74342.8
2017-Jan-16 10:32N 46°05' W 122°56'29819.4
2017-Jan-16 10:30N 45°37' W 122°48'431275.8
2017-Jan-16 10:28N 46°12' W 123°23'4346.8
2017-Jan-16 09:33N 45°37' W 122°48'352554.8
2017-Jan-16 09:32N 46°10' W 123°03'7141.6
2017-Jan-16 09:29N 46°05' W 122°56'201017.9
2017-Jan-16 09:28N 46°12' W 123°23'4346.8
2017-Jan-16 08:33N 45°37' W 122°48'291947.9
2017-Jan-16 08:32N 46°05' W 122°56'774.0
2017-Jan-16 08:26N 46°10' W 123°03'14194.7
2017-Jan-16 08:22N 46°12' W 123°23'4352.6
2017-Jan-16 07:33N 45°37' W 122°48'291877.1
2017-Jan-16 07:32N 46°05' W 122°56'20293.1
2017-Jan-16 07:28N 46°12' W 123°23'14487.8
2017-Jan-16 07:26N 46°10' W 123°03'3539.2
2017-Jan-16 06:33N 45°37' W 122°48'352721.4
2017-Jan-16 06:32N 46°10' W 123°03'73722.4
2017-Jan-16 06:32N 46°05' W 122°56'2929.1
2017-Jan-16 05:33N 45°37' W 122°48'353129.6
2017-Jan-16 05:33N 46°10' W 123°03'72004.4
2017-Jan-16 05:32N 46°05' W 122°56'201032.2
2017-Jan-16 05:31N 46°12' W 123°23'4344.4
2017-Jan-16 04:33N 45°37' W 122°48'352845.1
2017-Jan-16 04:32N 46°10' W 123°03'7137.1
2017-Jan-16 04:29N 46°05' W 122°56'2930.7
2017-Jan-16 03:33N 45°37' W 122°48'35648.6
2017-Jan-16 03:30N 46°10' W 123°03'745.0
2017-Jan-16 03:20N 46°05' W 122°56'2936.5
2017-Jan-16 02:33N 45°37' W 122°48'357824.0
2017-Jan-16 02:33N 46°10' W 123°03'7685.7
2017-Jan-16 02:32N 46°05' W 122°56'20296.7
2017-Jan-16 02:28N 46°12' W 123°23'4346.8
2017-Jan-16 01:33N 45°37' W 122°48'291911.9
2017-Jan-16 01:32N 46°05' W 122°56'7153.3
2017-Jan-16 01:29N 46°10' W 123°03'14193.2
2017-Jan-16 01:25N 46°12' W 123°23'1415.9
2017-Jan-16 00:32N 46°10' W 123°03'72171.4
2017-Jan-16 00:32N 46°05' W 122°56'29819.4
2017-Jan-16 00:30N 45°37' W 122°48'43232.1
2017-Jan-16 00:19N 46°12' W 123°23'4356.0
2017-Jan-15 23:33N 45°37' W 122°48'352911.2
2017-Jan-15 23:32N 46°10' W 123°03'72368.8
2017-Jan-15 23:32N 46°05' W 122°56'201046.9
2017-Jan-15 23:31N 46°12' W 123°23'1414.3
2017-Jan-15 22:32N 46°10' W 123°03'35394.9
2017-Jan-15 22:27N 45°37' W 122°48'291911.9
2017-Jan-15 22:26N 46°05' W 122°56'0 0.0
2017-Jan-15 21:32N 46°05' W 122°56'774.9
2017-Jan-15 21:26N 46°10' W 123°03'14605.3
2017-Jan-15 21:25N 46°12' W 123°23'432708.2
2017-Jan-15 21:24N 45°37' W 122°48'0 0.0
2017-Jan-15 20:33N 45°37' W 122°48'353294.3
2017-Jan-15 20:33N 46°10' W 123°03'71861.2
2017-Jan-15 20:32N 46°05' W 122°56'7 7.3
2017-Jan-15 19:33N 46°10' W 123°03'71737.1
2017-Jan-15 19:32N 46°05' W 122°56'29806.6
2017-Jan-15 19:30N 45°37' W 122°48'43509.5
2017-Jan-15 19:25N 46°12' W 123°23'4349.5
2017-Jan-15 18:33N 45°37' W 122°48'35313.7
2017-Jan-15 18:27N 46°10' W 123°03'71861.2
2017-Jan-15 18:26N 46°05' W 122°56'7 8.1
2017-Jan-15 17:33N 46°10' W 123°03'72895.2
2017-Jan-15 17:32N 46°05' W 122°56'29806.6
2017-Jan-15 17:30N 45°37' W 122°48'43182.0
2017-Jan-15 17:16N 46°12' W 123°23'2027.9
2017-Jan-15 16:32N 46°05' W 122°56'29800.3
2017-Jan-15 16:30N 45°37' W 122°48'353477.3
2017-Jan-15 16:30N 46°10' W 123°03'3537.0
2017-Jan-15 15:33N 45°37' W 122°48'353209.8
2017-Jan-15 15:33N 46°10' W 123°03'71737.1
2017-Jan-15 15:32N 46°05' W 122°56'2929.1
2017-Jan-15 14:33N 45°37' W 122°48'353576.7
2017-Jan-15 14:33N 46°10' W 123°03'71628.6
2017-Jan-15 14:32N 46°05' W 122°56'20163.2
2017-Jan-15 14:25N 46°12' W 123°23'4349.8
2017-Jan-15 13:33N 45°37' W 122°48'292024.3
2017-Jan-15 13:32N 46°05' W 122°56'7157.0
2017-Jan-15 13:30N 46°10' W 123°03'1461.0
2017-Jan-15 13:16N 46°12' W 123°23'4360.4
2017-Jan-15 12:33N 45°37' W 122°48'353477.3
2017-Jan-15 12:33N 46°10' W 123°03'71532.8
2017-Jan-15 12:32N 46°05' W 122°56'20163.6
2017-Jan-15 12:25N 46°12' W 123°23'4349.8
2017-Jan-15 11:33N 45°37' W 122°48'353576.7
2017-Jan-15 11:33N 46°10' W 123°03'71447.6
2017-Jan-15 11:32N 46°05' W 122°56'20842.4
2017-Jan-15 11:31N 46°12' W 123°23'4344.6
2017-Jan-15 10:33N 45°37' W 122°48'353681.9
2017-Jan-15 10:33N 46°10' W 123°03'71447.6
2017-Jan-15 10:32N 46°05' W 122°56'2042.9
2017-Jan-15 10:04N 46°12' W 123°23'2038.7
2017-Jan-15 09:32N 46°05' W 122°56'20832.8
2017-Jan-15 09:31N 46°12' W 123°23'14679.0
2017-Jan-15 09:30N 46°10' W 123°03'35863.3
2017-Jan-15 09:27N 45°37' W 122°48'0 0.0
2017-Jan-15 08:33N 45°37' W 122°48'35587.7
2017-Jan-15 08:30N 46°10' W 123°03'14474.0
2017-Jan-15 08:28N 46°12' W 123°23'20771.4
2017-Jan-15 08:26N 46°05' W 122°56'0 0.0
2017-Jan-15 07:32N 46°05' W 122°56'29819.4
2017-Jan-15 07:30N 45°37' W 122°48'35217.3
2017-Jan-15 07:21N 46°10' W 123°03'14133.6
2017-Jan-15 07:14N 46°12' W 123°23'4358.3
2017-Jan-15 06:30N 45°37' W 122°48'291985.4
2017-Jan-15 06:29N 46°05' W 122°56'7161.8
2017-Jan-15 06:27N 46°10' W 123°03'1468.3
2017-Jan-15 06:14N 46°12' W 123°23'2029.0
2017-Jan-15 05:32N 46°05' W 122°56'29800.3
2017-Jan-15 05:30N 45°37' W 122°48'354316.7
2017-Jan-15 05:30N 46°10' W 123°03'0 0.0
2017-Jan-15 04:33N 46°10' W 123°03'35840.2
2017-Jan-15 04:30N 45°37' W 122°48'29445.0
2017-Jan-15 04:26N 46°05' W 122°56'20206.4
2017-Jan-15 04:20N 46°12' W 123°23'4354.5
2017-Jan-15 03:33N 45°37' W 122°48'291911.9
2017-Jan-15 03:32N 46°05' W 122°56'7169.2
2017-Jan-15 03:30N 46°10' W 123°03'3536.9
2017-Jan-15 02:33N 45°37' W 122°48'354038.2
2017-Jan-15 02:33N 46°10' W 123°03'71240.8
2017-Jan-15 02:32N 46°05' W 122°56'7 7.3
2017-Jan-15 01:33N 46°10' W 123°03'71085.7
2017-Jan-15 01:32N 46°05' W 122°56'29812.9
2017-Jan-15 01:30N 45°37' W 122°48'43377.4
2017-Jan-15 01:23N 46°12' W 123°23'4351.3
2017-Jan-15 00:33N 45°37' W 122°48'354172.8
2017-Jan-15 00:33N 46°10' W 123°03'71042.3
2017-Jan-15 00:32N 46°05' W 122°56'2082.0
2017-Jan-15 00:17N 46°12' W 123°23'4358.2
2017-Jan-14 23:33N 45°37' W 122°48'29446.9
2017-Jan-14 23:29N 46°05' W 122°56'7164.9
2017-Jan-14 23:27N 46°10' W 123°03'142644.4
2017-Jan-14 23:26N 46°12' W 123°23'4348.3
2017-Jan-14 22:33N 45°37' W 122°48'354470.8
2017-Jan-14 22:33N 46°10' W 123°03'71132.9
2017-Jan-14 22:32N 46°05' W 122°56'2929.1
2017-Jan-14 21:33N 45°37' W 122°48'354316.7
2017-Jan-14 21:33N 46°10' W 123°03'767.7
2017-Jan-14 21:26N 46°05' W 122°56'2068.2
2017-Jan-14 21:08N 46°12' W 123°23'2033.9
2017-Jan-14 20:32N 46°05' W 122°56'29819.4
2017-Jan-14 20:30N 45°37' W 122°48'3585.5
2017-Jan-14 20:06N 46°10' W 123°03'3564.0
2017-Jan-14 19:33N 45°37' W 122°48'354470.8
2017-Jan-14 19:33N 46°10' W 123°03'71042.3
2017-Jan-14 19:32N 46°05' W 122°56'2929.1
2017-Jan-14 18:33N 45°37' W 122°48'35601.8
2017-Jan-14 18:30N 46°10' W 123°03'7125.3
2017-Jan-14 18:26N 46°05' W 122°56'2932.4
2017-Jan-14 17:33N 45°37' W 122°48'355007.3
2017-Jan-14 17:33N 46°10' W 123°03'7126.5
2017-Jan-14 17:29N 46°05' W 122°56'7 7.7
2017-Jan-14 16:33N 46°10' W 123°03'7868.6
2017-Jan-14 16:32N 46°05' W 122°56'29806.6
2017-Jan-14 16:30N 45°37' W 122°48'433675.4
2017-Jan-14 16:29N 46°12' W 123°23'4345.7
2017-Jan-14 15:33N 45°37' W 122°48'354814.8
2017-Jan-14 15:33N 46°10' W 123°03'7125.3
2017-Jan-14 15:29N 46°05' W 122°56'2930.7
2017-Jan-14 14:33N 45°37' W 122°48'355690.2
2017-Jan-14 14:33N 46°10' W 123°03'7789.6
2017-Jan-14 14:32N 46°05' W 122°56'2929.1
2017-Jan-14 13:33N 45°37' W 122°48'355442.8
2017-Jan-14 13:33N 46°10' W 123°03'7840.5
2017-Jan-14 13:32N 46°05' W 122°56'20137.5
2017-Jan-14 13:23N 46°12' W 123°23'1416.5
2017-Jan-14 12:33N 46°10' W 123°03'71002.2
2017-Jan-14 12:32N 46°05' W 122°56'29812.9
2017-Jan-14 12:30N 45°37' W 122°48'432968.6
2017-Jan-14 12:29N 46°12' W 123°23'1414.8
2017-Jan-14 11:33N 46°10' W 123°03'7898.5
2017-Jan-14 11:32N 46°05' W 122°56'29338.5
2017-Jan-14 11:27N 45°37' W 122°48'3538.3
2017-Jan-14 10:33N 46°10' W 123°03'7868.6
2017-Jan-14 10:32N 46°05' W 122°56'29806.6
2017-Jan-14 10:30N 45°37' W 122°48'43677.0
2017-Jan-14 10:26N 46°12' W 123°23'4348.6
2017-Jan-14 09:33N 45°37' W 122°48'291877.1
2017-Jan-14 09:33N 46°05' W 122°56'7158.9
2017-Jan-14 09:30N 46°10' W 123°03'3536.8
2017-Jan-14 08:33N 45°37' W 122°48'355961.1
2017-Jan-14 08:33N 46°10' W 123°03'7840.5
2017-Jan-14 08:32N 46°05' W 122°56'20136.5
2017-Jan-14 08:23N 46°12' W 123°23'4351.5
2017-Jan-14 07:33N 45°37' W 122°48'291588.3
2017-Jan-14 07:32N 46°05' W 122°56'7176.1
2017-Jan-14 07:30N 46°10' W 123°03'3536.8
2017-Jan-14 06:33N 45°37' W 122°48'355961.1
2017-Jan-14 06:33N 46°10' W 123°03'7789.6
2017-Jan-14 06:32N 46°05' W 122°56'2051.1
2017-Jan-14 06:08N 46°12' W 123°23'4373.1
2017-Jan-14 05:33N 45°37' W 122°48'355442.8
2017-Jan-14 05:33N 46°10' W 123°03'7840.5
2017-Jan-14 05:32N 46°05' W 122°56'20205.3
2017-Jan-14 05:26N 46°12' W 123°23'4348.4
2017-Jan-14 04:33N 45°37' W 122°48'291985.4
2017-Jan-14 04:32N 46°05' W 122°56'778.7
2017-Jan-14 04:27N 46°10' W 123°03'3538.9
2017-Jan-14 03:33N 45°37' W 122°48'355961.1
2017-Jan-14 03:33N 46°10' W 123°03'7814.3
2017-Jan-14 03:32N 46°05' W 122°56'7 1.8
2017-Jan-13 23:33N 46°10' W 123°03'7668.1
2017-Jan-13 23:32N 46°05' W 122°56'29825.9
2017-Jan-13 23:30N 45°37' W 122°48'43137.3
2017-Jan-13 23:11N 46°12' W 123°23'4367.2
2017-Jan-13 22:33N 45°37' W 122°48'357824.0
2017-Jan-13 22:33N 46°10' W 123°03'7744.5
2017-Jan-13 22:32N 46°05' W 122°56'2058.3
2017-Jan-13 22:11N 46°12' W 123°23'1421.8
2017-Jan-13 21:33N 46°10' W 123°03'35745.1
2017-Jan-13 21:30N 45°37' W 122°48'29494.0
2017-Jan-13 21:27N 46°05' W 122°56'2079.8
2017-Jan-13 21:11N 46°12' W 123°23'4367.3
2017-Jan-13 20:33N 45°37' W 122°48'3511380.3
2017-Jan-13 20:33N 46°10' W 123°03'7651.4
2017-Jan-13 20:32N 46°05' W 122°56'2081.9
2017-Jan-13 20:17N 46°12' W 123°23'4358.2
2017-Jan-13 19:33N 45°37' W 122°48'292150.9
2017-Jan-13 19:32N 46°05' W 122°56'20135.5
2017-Jan-13 19:23N 46°12' W 123°23'14154.6
2017-Jan-13 19:18N 46°10' W 123°03'3546.7
2017-Jan-13 18:33N 45°37' W 122°48'291877.1
2017-Jan-13 18:32N 46°05' W 122°56'7186.1
2017-Jan-13 18:30N 46°10' W 123°03'0 0.0
2017-Jan-13 17:33N 46°10' W 123°03'7635.5
2017-Jan-13 17:32N 46°05' W 122°56'29337.4
2017-Jan-13 17:27N 45°37' W 122°48'0 0.0
2017-Jan-13 16:30N 45°37' W 122°48'35655.4
2017-Jan-13 16:27N 46°10' W 123°03'7606.0
2017-Jan-13 16:26N 46°05' W 122°56'0 0.0
2017-Jan-13 15:32N 46°05' W 122°56'7184.8
2017-Jan-13 15:30N 46°10' W 123°03'35768.0
2017-Jan-13 15:27N 45°37' W 122°48'0 0.0
2017-Jan-13 14:33N 45°37' W 122°48'3510432.0
2017-Jan-13 14:33N 46°10' W 123°03'7606.0
2017-Jan-13 14:32N 46°05' W 122°56'2929.1
2017-Jan-13 13:33N 45°37' W 122°48'3512518.4
2017-Jan-13 13:33N 46°10' W 123°03'14231.5
2017-Jan-13 13:29N 46°12' W 123°23'2012214.3
2017-Jan-13 13:29N 46°05' W 122°56'2930.7
2017-Jan-13 12:33N 45°37' W 122°48'3515648.0
2017-Jan-13 12:33N 46°10' W 123°03'7579.0
2017-Jan-13 12:32N 46°05' W 122°56'20414.0
2017-Jan-13 12:29N 46°12' W 123°23'4345.8
2017-Jan-13 11:33N 45°37' W 122°48'3515648.0
2017-Jan-13 11:33N 46°10' W 123°03'14228.4
2017-Jan-13 11:29N 46°12' W 123°23'2014657.1
2017-Jan-13 11:29N 46°05' W 122°56'2930.7
2017-Jan-13 10:33N 45°37' W 122°48'3515648.0
2017-Jan-13 10:33N 46°10' W 123°03'7566.5
2017-Jan-13 10:32N 46°05' W 122°56'20416.4
2017-Jan-13 10:29N 46°12' W 123°23'1414.9
2017-Jan-13 09:33N 46°10' W 123°03'7592.2
2017-Jan-13 09:32N 46°05' W 122°56'29812.9
2017-Jan-13 09:30N 45°37' W 122°48'433216.0
2017-Jan-13 09:29N 46°12' W 123°23'4345.8
2017-Jan-13 08:33N 45°37' W 122°48'291877.1
2017-Jan-13 08:32N 46°05' W 122°56'7193.0
2017-Jan-13 08:30N 46°10' W 123°03'1444.9
2017-Jan-13 08:11N 46°12' W 123°23'4367.3
2017-Jan-13 07:33N 45°37' W 122°48'291911.9
2017-Jan-13 07:32N 46°05' W 122°56'7195.9
2017-Jan-13 07:30N 46°10' W 123°03'3536.7
2017-Jan-13 06:33N 45°37' W 122°48'3517883.4
2017-Jan-13 06:33N 46°10' W 123°03'7579.0
2017-Jan-13 06:32N 46°05' W 122°56'20205.3
2017-Jan-13 06:26N 46°12' W 123°23'4348.4
2017-Jan-13 05:33N 45°37' W 122°48'3517883.4
2017-Jan-13 05:33N 46°10' W 123°03'141168.4
2017-Jan-13 05:32N 46°12' W 123°23'2073285.7
2017-Jan-13 05:32N 46°05' W 122°56'2929.1
2017-Jan-13 04:33N 45°37' W 122°48'3515648.0
2017-Jan-13 04:33N 46°10' W 123°03'7114.3
2017-Jan-13 04:29N 46°05' W 122°56'2930.7
2017-Jan-13 03:33N 45°37' W 122°48'3517883.4
2017-Jan-13 03:33N 46°10' W 123°03'14227.3
2017-Jan-13 03:29N 46°12' W 123°23'20200.2
2017-Jan-13 03:23N 46°05' W 122°56'2934.4
2017-Jan-13 02:33N 45°37' W 122°48'3515648.0
2017-Jan-13 02:33N 46°10' W 123°03'7114.8
2017-Jan-13 02:29N 46°05' W 122°56'20136.7
2017-Jan-13 02:20N 46°12' W 123°23'4354.5
2017-Jan-13 01:33N 45°37' W 122°48'3541727.9
2017-Jan-13 01:33N 46°10' W 123°03'7542.9
2017-Jan-13 01:32N 46°05' W 122°56'20411.7
2017-Jan-13 01:29N 46°12' W 123°23'4345.8
2017-Jan-13 00:33N 45°37' W 122°48'3525036.7
2017-Jan-13 00:33N 46°10' W 123°03'7521.1
2017-Jan-13 00:32N 46°05' W 122°56'20136.7
2017-Jan-13 00:23N 46°12' W 123°23'2023.9
2017-Jan-12 23:32N 46°05' W 122°56'20416.4
2017-Jan-12 23:29N 46°12' W 123°23'431206.0
2017-Jan-12 23:27N 45°37' W 122°48'3520864.0
2017-Jan-12 23:27N 46°10' W 123°03'3538.7
2017-Jan-12 22:33N 45°37' W 122°48'35125183.7
2017-Jan-12 22:33N 46°10' W 123°03'7501.1
2017-Jan-12 22:32N 46°05' W 122°56'20205.3
2017-Jan-12 22:26N 46°12' W 123°23'2022.6
2017-Jan-12 21:32N 46°05' W 122°56'29812.9
2017-Jan-12 21:30N 45°37' W 122°48'3531295.9
2017-Jan-12 21:30N 46°10' W 123°03'1444.7
2017-Jan-12 21:11N 46°12' W 123°23'1420.3
2017-Jan-12 20:30N 46°10' W 123°03'7482.5
2017-Jan-12 20:29N 46°05' W 122°56'29819.4
2017-Jan-12 20:27N 45°37' W 122°48'43117.7
2017-Jan-12 20:05N 46°12' W 123°23'4380.0
2017-Jan-12 19:33N 45°37' W 122°48'354316.7
2017-Jan-12 19:33N 46°10' W 123°03'71085.7
2017-Jan-12 19:32N 46°05' W 122°56'2929.1
2017-Jan-12 18:33N 45°37' W 122°48'353912.0
2017-Jan-12 18:33N 46°10' W 123°03'71085.7
2017-Jan-12 18:32N 46°05' W 122°56'7 7.3
2017-Jan-12 17:33N 46°10' W 123°03'35840.2
2017-Jan-12 17:30N 45°37' W 122°48'291877.1
2017-Jan-12 17:29N 46°05' W 122°56'2068.2
2017-Jan-12 17:11N 46°12' W 123°23'0 0.0
2017-Jan-12 16:32N 46°12' W 123°23'431169.4
2017-Jan-12 16:30N 45°37' W 122°48'354172.8
2017-Jan-12 16:30N 46°10' W 123°03'7126.5
2017-Jan-12 16:26N 46°05' W 122°56'2930.7
2017-Jan-12 15:30N 45°37' W 122°48'354470.8
2017-Jan-12 15:30N 46°10' W 123°03'71002.2
2017-Jan-12 15:29N 46°05' W 122°56'2068.4
2017-Jan-12 15:11N 46°12' W 123°23'4367.4
2017-Jan-12 14:33N 45°37' W 122°48'291811.2
2017-Jan-12 14:32N 46°05' W 122°56'7168.1
2017-Jan-12 14:30N 46°10' W 123°03'14132.6
2017-Jan-12 14:23N 46°12' W 123°23'1416.5
2017-Jan-12 13:33N 46°10' W 123°03'71132.9
2017-Jan-12 13:32N 46°05' W 122°56'29800.3
2017-Jan-12 13:30N 45°37' W 122°48'43200.5
2017-Jan-12 13:17N 46°12' W 123°23'4354.6
2017-Jan-12 12:30N 45°37' W 122°48'354316.7
2017-Jan-12 12:30N 46°10' W 123°03'142283.8
2017-Jan-12 12:29N 46°12' W 123°23'2024428.6
2017-Jan-12 12:29N 46°05' W 122°56'2930.7
2017-Jan-12 11:33N 45°37' W 122°48'354172.8
2017-Jan-12 11:33N 46°10' W 123°03'71085.7
2017-Jan-12 11:32N 46°05' W 122°56'20416.4
2017-Jan-12 11:29N 46°12' W 123°23'1414.8
2017-Jan-12 10:33N 46°10' W 123°03'35377.1
2017-Jan-12 10:27N 45°37' W 122°48'43379.3
2017-Jan-12 10:20N 46°12' W 123°23'2014657.1
2017-Jan-12 10:20N 46°05' W 122°56'7 9.1
2017-Jan-12 09:33N 46°10' W 123°03'7126.5
2017-Jan-12 09:29N 46°05' W 122°56'29819.4
2017-Jan-12 09:27N 45°37' W 122°48'43262.1
2017-Jan-12 09:17N 46°12' W 123°23'4358.3
2017-Jan-12 08:33N 45°37' W 122°48'433087.3
2017-Jan-12 08:32N 46°12' W 123°23'2018321.4
2017-Jan-12 08:32N 46°05' W 122°56'7172.6
2017-Jan-12 08:30N 46°10' W 123°03'3536.9
2017-Jan-12 07:33N 45°37' W 122°48'355216.0
2017-Jan-12 07:33N 46°10' W 123°03'142093.6
2017-Jan-12 07:32N 46°12' W 123°23'20396.2
2017-Jan-12 07:29N 46°05' W 122°56'2930.7
2017-Jan-12 06:33N 45°37' W 122°48'29247.6
2017-Jan-12 06:26N 46°05' W 122°56'7172.6
2017-Jan-12 06:24N 46°10' W 123°03'1467.5
2017-Jan-12 06:11N 46°12' W 123°23'4367.4
2017-Jan-12 05:33N 45°37' W 122°48'29441.2
2017-Jan-12 05:29N 46°05' W 122°56'751.0
2017-Jan-12 05:21N 46°10' W 123°03'3543.8
2017-Jan-12 04:33N 45°37' W 122°48'291947.9
2017-Jan-12 04:32N 46°05' W 122°56'778.7
2017-Jan-12 04:27N 46°10' W 123°03'14130.8
2017-Jan-12 04:20N 46°12' W 123°23'4354.5
2017-Jan-12 03:33N 45°37' W 122°48'29248.8
2017-Jan-12 03:26N 46°05' W 122°56'7219.0
2017-Jan-12 03:24N 46°10' W 123°03'14913.5
2017-Jan-12 03:23N 46°12' W 123°23'4351.3
2017-Jan-12 02:33N 45°37' W 122°48'29439.3
2017-Jan-12 02:29N 46°05' W 122°56'7220.8
2017-Jan-12 02:27N 46°10' W 123°03'14211.1
2017-Jan-12 02:23N 46°12' W 123°23'4351.3
2017-Jan-12 01:33N 45°37' W 122°48'29439.3
2017-Jan-12 01:29N 46°05' W 122°56'779.7
2017-Jan-12 01:24N 46°10' W 123°03'141932.4
2017-Jan-12 01:23N 46°12' W 123°23'2023.9
2017-Jan-12 00:32N 46°05' W 122°56'7172.6
2017-Jan-12 00:30N 46°10' W 123°03'141860.9
2017-Jan-12 00:29N 46°12' W 123°23'431187.4
2017-Jan-12 00:27N 45°37' W 122°48'0 0.0
2017-Jan-11 23:33N 45°37' W 122°48'433150.4
2017-Jan-11 23:32N 46°12' W 123°23'2036642.8
2017-Jan-11 23:32N 46°05' W 122°56'7174.9
2017-Jan-11 23:30N 46°10' W 123°03'3536.8
2017-Jan-11 22:33N 45°37' W 122°48'291877.1
2017-Jan-11 22:32N 46°05' W 122°56'7176.1
2017-Jan-11 22:30N 46°10' W 123°03'141932.4
2017-Jan-11 22:29N 46°12' W 123°23'1414.9
2017-Jan-11 21:33N 46°10' W 123°03'14881.5
2017-Jan-11 21:32N 46°12' W 123°23'2018321.4
2017-Jan-11 21:32N 46°05' W 122°56'29806.6
2017-Jan-11 21:30N 45°37' W 122°48'4344.5
2017-Jan-11 20:32N 46°12' W 123°23'2024428.6
2017-Jan-11 20:32N 46°05' W 122°56'29800.3
2017-Jan-11 20:30N 45°37' W 122°48'35740.7
2017-Jan-11 20:27N 46°10' W 123°03'3538.6
2017-Jan-11 19:33N 45°37' W 122°48'35732.1
2017-Jan-11 19:30N 46°10' W 123°03'7394.8
2017-Jan-11 19:29N 46°05' W 122°56'20436.2
2017-Jan-11 19:26N 46°12' W 123°23'1415.8
2017-Jan-11 18:33N 46°10' W 123°03'359629.5
2017-Jan-11 18:33N 45°37' W 122°48'43671.2
2017-Jan-11 18:29N 46°12' W 123°23'2014657.1
2017-Jan-11 18:29N 46°05' W 122°56'7 7.8
2017-Jan-11 17:33N 46°10' W 123°03'35652.0
2017-Jan-11 17:30N 45°37' W 122°48'433150.4
2017-Jan-11 17:29N 46°12' W 123°23'2024428.6
2017-Jan-11 17:29N 46°05' W 122°56'7 7.8
2017-Jan-11 16:33N 46°10' W 123°03'359629.5
2017-Jan-11 16:33N 45°37' W 122°48'291985.4
2017-Jan-11 16:32N 46°05' W 122°56'20137.8
2017-Jan-11 16:23N 46°12' W 123°23'1416.7
2017-Jan-11 15:33N 46°10' W 123°03'35642.0
2017-Jan-11 15:30N 45°37' W 122°48'433087.3
2017-Jan-11 15:29N 46°12' W 123°23'20404.9
2017-Jan-11 15:26N 46°05' W 122°56'7 8.2
2017-Jan-11 14:33N 46°10' W 123°03'35333.8
2017-Jan-11 14:27N 45°37' W 122°48'291947.9
2017-Jan-11 14:26N 46°05' W 122°56'20421.2
2017-Jan-11 14:23N 46°12' W 123°23'1415.8
2017-Jan-11 13:30N 46°10' W 123°03'3510432.0
2017-Jan-11 13:30N 45°37' W 122°48'29250.0
2017-Jan-11 13:23N 46°05' W 122°56'7 8.7
2017-Jan-11 12:33N 46°10' W 123°03'7394.8
2017-Jan-11 12:32N 46°05' W 122°56'29806.6
2017-Jan-11 12:30N 45°37' W 122°48'433087.3
2017-Jan-11 12:29N 46°12' W 123°23'1415.0
2017-Jan-11 11:33N 46°10' W 123°03'358345.6
2017-Jan-11 11:33N 45°37' W 122°48'433216.0
2017-Jan-11 11:32N 46°12' W 123°23'2018321.4
2017-Jan-11 11:32N 46°05' W 122°56'2929.1
2017-Jan-11 10:33N 45°37' W 122°48'433026.8
2017-Jan-11 10:32N 46°12' W 123°23'2018321.4
2017-Jan-11 10:32N 46°05' W 122°56'7236.9
2017-Jan-11 10:30N 46°10' W 123°03'0 0.0
2017-Jan-11 09:33N 46°10' W 123°03'357824.0
2017-Jan-11 09:33N 45°37' W 122°48'433150.4
2017-Jan-11 09:32N 46°12' W 123°23'20391.9
2017-Jan-11 09:29N 46°05' W 122°56'7 7.8
2017-Jan-11 08:33N 46°10' W 123°03'357824.0
2017-Jan-11 08:33N 45°37' W 122°48'433026.8
2017-Jan-11 08:32N 46°12' W 123°23'2014657.1
2017-Jan-11 08:32N 46°05' W 122°56'7 7.3
2017-Jan-11 07:33N 46°10' W 123°03'144567.6
2017-Jan-11 07:32N 46°12' W 123°23'2018321.4
2017-Jan-11 07:32N 46°05' W 122°56'29819.4
2017-Jan-11 07:30N 45°37' W 122°48'0 0.0
2017-Jan-11 06:33N 45°37' W 122°48'3515648.0
2017-Jan-11 06:33N 46°10' W 123°03'7566.5
2017-Jan-11 06:32N 46°05' W 122°56'7 7.3
2017-Jan-11 05:33N 46°10' W 123°03'7116.3
2017-Jan-11 05:29N 46°05' W 122°56'29846.2
2017-Jan-11 05:27N 45°37' W 122°48'43136.2
2017-Jan-11 05:08N 46°12' W 123°23'4373.3
2017-Jan-11 04:33N 45°37' W 122°48'291843.6
2017-Jan-11 04:32N 46°05' W 122°56'7191.6
2017-Jan-11 04:30N 46°10' W 123°03'0 0.0
2017-Jan-11 03:33N 46°10' W 123°03'7554.4
2017-Jan-11 03:32N 46°05' W 122°56'29819.4
2017-Jan-11 03:30N 45°37' W 122°48'43162.8
2017-Jan-11 03:14N 46°12' W 123°23'1420.3
2017-Jan-11 02:33N 46°10' W 123°03'7566.5
2017-Jan-11 02:32N 46°05' W 122°56'29825.9
2017-Jan-11 02:30N 45°37' W 122°48'0 0.0
2017-Jan-11 01:33N 45°37' W 122°48'3520864.0
2017-Jan-11 01:33N 46°10' W 123°03'7542.9
2017-Jan-11 01:32N 46°05' W 122°56'7 7.3
2017-Jan-11 00:33N 46°10' W 123°03'35719.4
2017-Jan-11 00:30N 45°37' W 122°48'291985.4
2017-Jan-11 00:29N 46°05' W 122°56'2930.7
2017-Jan-10 23:33N 45°37' W 122°48'3525036.7
2017-Jan-10 23:33N 46°10' W 123°03'7521.1
2017-Jan-10 23:32N 46°05' W 122°56'2082.0
2017-Jan-10 23:17N 46°12' W 123°23'4358.2
2017-Jan-10 22:33N 45°37' W 122°48'3525036.7
2017-Jan-10 22:33N 46°10' W 123°03'7620.4
2017-Jan-10 22:32N 46°05' W 122°56'7 7.0
2017-Jan-10 21:30N 46°10' W 123°03'7635.5
2017-Jan-10 21:29N 46°05' W 122°56'29329.8
2017-Jan-10 21:24N 45°37' W 122°48'43376.5
2017-Jan-10 21:17N 46°12' W 123°23'4358.2
2017-Jan-10 20:33N 45°37' W 122°48'3562591.9
2017-Jan-10 20:33N 46°10' W 123°03'7501.1
2017-Jan-10 20:32N 46°05' W 122°56'2081.9
2017-Jan-10 20:17N 46°12' W 123°23'4358.3
2017-Jan-10 19:33N 45°37' W 122°48'3525036.7
2017-Jan-10 19:33N 46°10' W 123°03'14123.4
2017-Jan-10 19:26N 46°12' W 123°23'20409.4
2017-Jan-10 19:23N 46°05' W 122°56'7 8.6
2017-Jan-10 18:33N 46°10' W 123°03'141046.7
2017-Jan-10 18:32N 46°12' W 123°23'20203.0
2017-Jan-10 18:26N 46°05' W 122°56'29812.9
2017-Jan-10 18:24N 45°37' W 122°48'0 0.0
2017-Jan-10 17:30N 45°37' W 122°48'3531295.9
2017-Jan-10 17:30N 46°10' W 123°03'7491.6
2017-Jan-10 17:29N 46°05' W 122°56'20418.8
2017-Jan-10 17:26N 46°12' W 123°23'4345.8
2017-Jan-10 16:30N 45°37' W 122°48'3562591.9
2017-Jan-10 16:30N 46°10' W 123°03'7491.6
2017-Jan-10 16:29N 46°05' W 122°56'2068.2
2017-Jan-10 16:11N 46°12' W 123°23'4367.4
2017-Jan-10 15:33N 45°37' W 122°48'3562591.9
2017-Jan-10 15:33N 46°10' W 123°03'141116.5
2017-Jan-10 15:32N 46°12' W 123°23'20200.8
2017-Jan-10 15:26N 46°05' W 122°56'0 0.0
2017-Jan-10 14:32N 46°05' W 122°56'29832.6
2017-Jan-10 14:30N 45°37' W 122°48'3536.6
2017-Jan-10 13:33N 46°10' W 123°03'7521.1
2017-Jan-10 13:32N 46°05' W 122°56'2045.2
2017-Jan-10 13:05N 46°12' W 123°23'2036.9
2017-Jan-10 12:32N 46°05' W 122°56'7213.6
2017-Jan-10 12:30N 46°10' W 123°03'3562591.9
2017-Jan-10 12:30N 45°37' W 122°48'43662.5
2017-Jan-10 12:26N 46°12' W 123°23'4348.4
2017-Jan-10 11:33N 45°37' W 122°48'292064.8
2017-Jan-10 11:32N 46°05' W 122°56'7203.6
2017-Jan-10 11:30N 46°10' W 123°03'141004.9
2017-Jan-10 11:29N 46°12' W 123°23'1414.9
2017-Jan-10 10:33N 46°10' W 123°03'14985.2
2017-Jan-10 10:32N 46°12' W 123°23'431196.6
2017-Jan-10 10:30N 45°37' W 122°48'291985.4
2017-Jan-10 10:29N 46°05' W 122°56'7 7.7
2017-Jan-10 09:33N 46°10' W 123°03'7501.1
2017-Jan-10 09:32N 46°05' W 122°56'2081.6
2017-Jan-10 09:17N 46°12' W 123°23'1419.0
2017-Jan-10 08:33N 46°10' W 123°03'3525036.7
2017-Jan-10 08:33N 45°37' W 122°48'433150.4
2017-Jan-10 08:32N 46°12' W 123°23'2014657.1
2017-Jan-10 08:32N 46°05' W 122°56'7 7.4
2017-Jan-10 07:33N 46°10' W 123°03'7482.5
2017-Jan-10 07:32N 46°05' W 122°56'20423.6
2017-Jan-10 07:29N 46°12' W 123°23'4345.8
2017-Jan-10 06:33N 45°37' W 122°48'432912.6
2017-Jan-10 06:32N 46°12' W 123°23'14401.9
2017-Jan-10 06:30N 46°10' W 123°03'743.6
2017-Jan-10 06:20N 46°05' W 122°56'2025.5
2017-Jan-10 05:32N 46°12' W 123°23'14395.6
2017-Jan-10 05:30N 46°10' W 123°03'3562591.9
2017-Jan-10 05:30N 45°37' W 122°48'292024.3
2017-Jan-10 05:29N 46°05' W 122°56'7 7.7
2017-Jan-10 04:33N 46°10' W 123°03'3562591.9
2017-Jan-10 04:33N 45°37' W 122°48'433087.3
2017-Jan-10 04:32N 46°12' W 123°23'2036642.8
2017-Jan-10 04:32N 46°05' W 122°56'7 7.4
2017-Jan-10 03:33N 46°10' W 123°03'7457.1
2017-Jan-10 03:32N 46°05' W 122°56'29211.1
2017-Jan-10 03:24N 45°37' W 122°48'0 0.0
2017-Jan-10 02:33N 45°37' W 122°48'433216.0
2017-Jan-10 02:32N 46°12' W 123°23'20201.9
2017-Jan-10 02:26N 46°05' W 122°56'7215.3
2017-Jan-10 02:24N 46°10' W 123°03'0 0.0
2017-Jan-10 01:33N 46°10' W 123°03'3525036.7
2017-Jan-10 01:33N 45°37' W 122°48'291911.9
2017-Jan-10 01:32N 46°05' W 122°56'7 7.4
2017-Jan-10 00:33N 46°10' W 123°03'7441.6
2017-Jan-10 00:32N 46°05' W 122°56'29819.4
2017-Jan-10 00:30N 45°37' W 122°48'43260.8
2017-Jan-10 00:20N 46°12' W 123°23'4354.6
2017-Jan-09 23:33N 45°37' W 122°48'35532.7
2017-Jan-09 23:29N 46°10' W 123°03'748.4
2017-Jan-09 23:20N 46°05' W 122°56'7 9.2
2017-Jan-09 22:33N 46°10' W 123°03'3517883.4
2017-Jan-09 22:33N 45°37' W 122°48'29439.3
2017-Jan-09 22:29N 46°05' W 122°56'2930.7
2017-Jan-09 21:33N 45°37' W 122°48'291877.1
2017-Jan-09 21:32N 46°05' W 122°56'787.7
2017-Jan-09 21:27N 46°10' W 123°03'1448.1
2017-Jan-09 21:10N 46°12' W 123°23'4370.1
2017-Jan-09 20:33N 45°37' W 122°48'291947.9
2017-Jan-09 20:32N 46°05' W 122°56'7217.1
2017-Jan-09 20:30N 46°10' W 123°03'1458.0
2017-Jan-09 20:16N 46°12' W 123°23'1419.7
2017-Jan-09 19:33N 46°10' W 123°03'35658.9
2017-Jan-09 19:30N 45°37' W 122°48'29456.8
2017-Jan-09 19:26N 46°05' W 122°56'2054.2
2017-Jan-09 19:04N 46°12' W 123°23'4383.8
2017-Jan-09 18:33N 45°37' W 122°48'291911.9
2017-Jan-09 18:32N 46°05' W 122°56'7222.7
2017-Jan-09 18:30N 46°10' W 123°03'1499.1
2017-Jan-09 18:22N 46°12' W 123°23'1417.3
2017-Jan-09 17:33N 46°10' W 123°03'7400.9
2017-Jan-09 17:32N 46°05' W 122°56'29806.6
2017-Jan-09 17:30N 45°37' W 122°48'43180.5
2017-Jan-09 17:16N 46°12' W 123°23'1419.7
2017-Jan-09 16:33N 46°10' W 123°03'7394.8
2017-Jan-09 16:32N 46°05' W 122°56'20285.2
2017-Jan-09 16:28N 46°12' W 123°23'433026.8
2017-Jan-09 16:27N 45°37' W 122°48'3538.8
2017-Jan-09 15:33N 46°10' W 123°03'3513909.3
2017-Jan-09 15:33N 45°37' W 122°48'291843.6
2017-Jan-09 15:32N 46°05' W 122°56'20893.7
2017-Jan-09 15:31N 46°12' W 123°23'1413.8
2017-Jan-09 14:30N 46°10' W 123°03'357824.0
2017-Jan-09 14:30N 45°37' W 122°48'29445.0
2017-Jan-09 14:26N 46°05' W 122°56'7 8.2
2017-Jan-09 13:33N 46°10' W 123°03'359629.5
2017-Jan-09 13:33N 45°37' W 122°48'29251.8
2017-Jan-09 13:26N 46°05' W 122°56'20842.5
2017-Jan-09 13:25N 46°12' W 123°23'1416.3
2017-Jan-09 12:33N 46°10' W 123°03'358345.6
2017-Jan-09 12:33N 45°37' W 122°48'292064.8
2017-Jan-09 12:32N 46°05' W 122°56'7 7.4
2017-Jan-09 11:33N 46°10' W 123°03'3512518.4
2017-Jan-09 11:33N 45°37' W 122°48'291877.1
2017-Jan-09 11:32N 46°05' W 122°56'2090.9
2017-Jan-09 11:19N 46°12' W 123°23'4356.3
2017-Jan-09 10:33N 45°37' W 122°48'291911.9
2017-Jan-09 10:32N 46°05' W 122°56'7230.6
2017-Jan-09 10:30N 46°10' W 123°03'14335.0
2017-Jan-09 10:28N 46°12' W 123°23'4347.0
2017-Jan-09 09:33N 45°37' W 122°48'29445.0
2017-Jan-09 09:29N 46°05' W 122°56'20276.5
2017-Jan-09 09:25N 46°12' W 123°23'1488.3
2017-Jan-09 09:15N 46°10' W 123°03'710.1
2017-Jan-09 08:32N 46°05' W 122°56'7234.7
2017-Jan-09 08:30N 46°10' W 123°03'357824.0
2017-Jan-09 08:30N 45°37' W 122°48'2929.7
2017-Jan-09 07:32N 46°05' W 122°56'7234.7
2017-Jan-09 07:30N 46°10' W 123°03'35645.3
2017-Jan-09 07:27N 45°37' W 122°48'43485.4
2017-Jan-09 07:22N 46°12' W 123°23'4352.8
2017-Jan-09 06:33N 45°37' W 122°48'431094.8
2017-Jan-09 06:31N 46°12' W 123°23'142184.5
2017-Jan-09 06:30N 46°10' W 123°03'7103.8
2017-Jan-09 06:26N 46°05' W 122°56'2932.4
2017-Jan-09 05:33N 45°37' W 122°48'292107.0
2017-Jan-09 05:32N 46°05' W 122°56'7232.7
2017-Jan-09 05:30N 46°10' W 123°03'1497.4
2017-Jan-09 05:22N 46°12' W 123°23'4352.9
2017-Jan-09 04:33N 45°37' W 122°48'29435.6
2017-Jan-09 04:29N 46°05' W 122°56'755.7
2017-Jan-09 04:21N 46°10' W 123°03'0 0.0
2017-Jan-09 03:30N 46°10' W 123°03'356588.6
2017-Jan-09 03:30N 45°37' W 122°48'291985.4
2017-Jan-09 03:29N 46°05' W 122°56'2930.7
2017-Jan-09 02:33N 45°37' W 122°48'291947.9
2017-Jan-09 02:32N 46°05' W 122°56'7329.8
2017-Jan-09 02:31N 46°10' W 123°03'7 7.0
2017-Jan-09 01:29N 46°05' W 122°56'7342.9
2017-Jan-09 01:28N 46°10' W 123°03'352663.5
2017-Jan-09 01:27N 45°37' W 122°48'0 0.0
2017-Jan-09 00:33N 45°37' W 122°48'291911.9
2017-Jan-09 00:32N 46°05' W 122°56'7321.7
2017-Jan-09 00:31N 46°10' W 123°03'145582.6
2017-Jan-09 00:31N 46°12' W 123°23'4344.7
2017-Jan-08 23:33N 45°37' W 122°48'291911.9
2017-Jan-08 23:32N 46°05' W 122°56'759.2
2017-Jan-08 23:25N 46°10' W 123°03'145582.6
2017-Jan-08 23:25N 46°12' W 123°23'2022.0
2017-Jan-08 22:29N 46°05' W 122°56'291474.9
2017-Jan-08 22:28N 45°37' W 122°48'3513909.3
2017-Jan-08 22:28N 46°10' W 123°03'7 7.8
2017-Jan-08 21:32N 46°05' W 122°56'291518.2
2017-Jan-08 21:31N 45°37' W 122°48'438576.0
2017-Jan-08 21:31N 46°12' W 123°23'14290.4
2017-Jan-08 21:28N 46°10' W 123°03'7 7.8
2017-Jan-08 20:32N 46°05' W 122°56'29413.0
2017-Jan-08 20:28N 45°37' W 122°48'35695.5
2017-Jan-08 20:25N 46°10' W 123°03'1446.0
2017-Jan-08 20:07N 46°12' W 123°23'1423.3
2017-Jan-08 19:31N 46°10' W 123°03'7245.8
2017-Jan-08 19:29N 46°05' W 122°56'29418.0
2017-Jan-08 19:25N 45°37' W 122°48'3538.6
2017-Jan-08 18:31N 46°10' W 123°03'35732.1
2017-Jan-08 18:28N 45°37' W 122°48'29890.0
2017-Jan-08 18:26N 46°05' W 122°56'20117.4
2017-Jan-08 18:16N 46°12' W 123°23'2028.0
2017-Jan-08 17:32N 46°05' W 122°56'291540.9
2017-Jan-08 17:31N 45°37' W 122°48'353383.3
2017-Jan-08 17:31N 46°10' W 123°03'1435.4
2017-Jan-08 17:07N 46°12' W 123°23'2035.3
2017-Jan-08 16:32N 46°05' W 122°56'291540.9
2017-Jan-08 16:31N 45°37' W 122°48'438576.0
2017-Jan-08 16:31N 46°12' W 123°23'14253.8
2017-Jan-08 16:28N 46°10' W 123°03'7 7.9
2017-Jan-08 15:32N 46°05' W 122°56'20883.0
2017-Jan-08 15:31N 46°12' W 123°23'43941.3
2017-Jan-08 15:28N 45°37' W 122°48'35165.4
2017-Jan-08 15:16N 46°10' W 123°03'710.0
2017-Jan-08 14:32N 46°05' W 122°56'291588.3
2017-Jan-08 14:31N 45°37' W 122°48'439649.1
2017-Jan-08 14:31N 46°12' W 123°23'14132.9
2017-Jan-08 14:25N 46°10' W 123°03'7 8.3
2017-Jan-08 13:32N 46°05' W 122°56'20893.7
2017-Jan-08 13:31N 46°12' W 123°23'142955.5
2017-Jan-08 13:31N 46°10' W 123°03'35398.7
2017-Jan-08 13:25N 45°37' W 122°48'2932.4
2017-Jan-08 12:32N 46°05' W 122°56'291540.9
2017-Jan-08 12:31N 45°37' W 122°48'437350.8
2017-Jan-08 12:31N 46°12' W 123°23'143864.9
2017-Jan-08 12:31N 46°10' W 123°03'0 0.0
2017-Jan-08 11:33N 46°10' W 123°03'7542.9
2017-Jan-08 11:32N 46°05' W 122°56'29107.1
2017-Jan-08 11:16N 45°37' W 122°48'0 0.0
2017-Jan-08 10:25N 45°37' W 122°48'35523.8
2017-Jan-08 10:21N 46°10' W 123°03'7 8.9
2017-Jan-08 09:32N 46°05' W 122°56'291518.2
2017-Jan-08 09:31N 45°37' W 122°48'352052.2
2017-Jan-08 09:30N 46°10' W 123°03'1458.8
2017-Jan-08 09:16N 46°12' W 123°23'1419.6
2017-Jan-08 08:33N 46°10' W 123°03'7521.1
2017-Jan-08 08:32N 46°05' W 122°56'29241.8
2017-Jan-08 08:25N 45°37' W 122°48'43771.8
2017-Jan-08 08:22N 46°12' W 123°23'1417.2
2017-Jan-08 07:33N 46°10' W 123°03'7510.9
2017-Jan-08 07:32N 46°05' W 122°56'291518.2
2017-Jan-08 07:31N 45°37' W 122°48'3536.0
2017-Jan-08 06:33N 46°10' W 123°03'7465.3
2017-Jan-08 06:32N 46°05' W 122°56'291540.9
2017-Jan-08 06:31N 45°37' W 122°48'43209.5
2017-Jan-08 06:19N 46°12' W 123°23'1418.3
2017-Jan-08 05:33N 46°10' W 123°03'7112.3
2017-Jan-08 05:29N 46°05' W 122°56'291518.2
2017-Jan-08 05:28N 45°37' W 122°48'43804.0
2017-Jan-08 05:25N 46°12' W 123°23'1416.2
2017-Jan-08 04:33N 46°10' W 123°03'351052.0
2017-Jan-08 04:31N 45°37' W 122°48'29352.4
2017-Jan-08 04:26N 46°05' W 122°56'7 8.2
2017-Jan-08 03:33N 46°10' W 123°03'35913.7
2017-Jan-08 03:31N 45°37' W 122°48'291042.8
2017-Jan-08 03:29N 46°05' W 122°56'20117.4
2017-Jan-08 03:19N 46°12' W 123°23'1418.3
2017-Jan-08 02:33N 46°10' W 123°03'35913.7
2017-Jan-08 02:31N 45°37' W 122°48'291032.4
2017-Jan-08 02:29N 46°05' W 122°56'0 0.0
2017-Jan-08 01:32N 46°05' W 122°56'291274.6
2017-Jan-08 01:31N 45°37' W 122°48'35164.1
2017-Jan-08 01:18N 46°10' W 123°03'7 9.5
2017-Jan-08 00:32N 46°05' W 122°56'291243.9
2017-Jan-08 00:31N 45°37' W 122°48'43843.5
2017-Jan-08 00:28N 46°12' W 123°23'141225.4
2017-Jan-08 00:27N 46°10' W 123°03'7 7.9
2017-Jan-07 23:32N 46°05' W 122°56'291274.6
2017-Jan-07 23:31N 45°37' W 122°48'35561.4
2017-Jan-07 23:27N 46°10' W 123°03'0 0.0
2017-Jan-07 22:33N 46°10' W 123°03'7420.3
2017-Jan-07 22:32N 46°05' W 122°56'291274.6
2017-Jan-07 22:31N 45°37' W 122°48'43142.0
2017-Jan-07 22:13N 46°12' W 123°23'1421.1
2017-Jan-07 21:33N 46°10' W 123°03'7457.1
2017-Jan-07 21:32N 46°05' W 122°56'29392.6
2017-Jan-07 21:28N 45°37' W 122°48'43170.9
2017-Jan-07 21:13N 46°12' W 123°23'1421.1
2017-Jan-07 20:33N 46°10' W 123°03'7482.5
2017-Jan-07 20:32N 46°05' W 122°56'29392.6
2017-Jan-07 20:28N 45°37' W 122°48'2930.9
2017-Jan-07 19:32N 46°05' W 122°56'29392.6
2017-Jan-07 19:28N 45°37' W 122°48'43154367.2
2017-Jan-07 19:28N 46°12' W 123°23'141288.3
2017-Jan-07 19:27N 46°10' W 123°03'7 7.9
2017-Jan-07 18:32N 46°05' W 122°56'7211.8
2017-Jan-07 18:30N 46°10' W 123°03'35869.3
2017-Jan-07 18:28N 45°37' W 122°48'2931.0
2017-Jan-07 17:32N 46°05' W 122°56'291243.9
2017-Jan-07 17:31N 45°37' W 122°48'353053.3
2017-Jan-07 17:30N 46°10' W 123°03'0 0.0
2017-Jan-07 16:33N 46°10' W 123°03'7441.6
2017-Jan-07 16:32N 46°05' W 122°56'29398.6
2017-Jan-07 16:28N 45°37' W 122°48'3538.2
2017-Jan-07 15:33N 46°10' W 123°03'35900.6
2017-Jan-07 15:31N 45°37' W 122°48'4351461.7
2017-Jan-07 15:31N 46°12' W 123°23'20747.9
2017-Jan-07 15:29N 46°05' W 122°56'7 7.8
2017-Jan-07 14:33N 46°10' W 123°03'7449.3
2017-Jan-07 14:32N 46°05' W 122°56'291229.1
2017-Jan-07 14:31N 45°37' W 122°48'43214.1
2017-Jan-07 14:19N 46°12' W 123°23'2026.2
2017-Jan-07 13:32N 46°05' W 122°56'291274.6
2017-Jan-07 13:31N 45°37' W 122°48'35673.0
2017-Jan-07 13:28N 46°10' W 123°03'14285.5
2017-Jan-07 13:25N 46°12' W 123°23'2023.2
2017-Jan-07 12:32N 46°05' W 122°56'7286.3
2017-Jan-07 12:31N 46°10' W 123°03'35732.1
2017-Jan-07 12:28N 45°37' W 122°48'43284.3
2017-Jan-07 12:19N 46°12' W 123°23'2026.2
2017-Jan-07 11:32N 46°05' W 122°56'20883.0
2017-Jan-07 11:31N 46°12' W 123°23'43154367.2
2017-Jan-07 11:31N 45°37' W 122°48'3517883.4
2017-Jan-07 11:31N 46°10' W 123°03'0 0.0
2017-Jan-07 10:33N 46°10' W 123°03'35875.4
2017-Jan-07 10:31N 45°37' W 122°48'291042.8
2017-Jan-07 10:29N 46°05' W 122°56'0 0.0
2017-Jan-07 09:32N 46°05' W 122°56'29391.1
2017-Jan-07 09:28N 45°37' W 122°48'43852.9
2017-Jan-07 09:25N 46°12' W 123°23'141732.5
2017-Jan-07 09:24N 46°10' W 123°03'7 8.3
2017-Jan-07 08:32N 46°05' W 122°56'291259.0
2017-Jan-07 08:31N 45°37' W 122°48'35585.0
2017-Jan-07 08:27N 46°10' W 123°03'1448.0
2017-Jan-07 08:10N 46°12' W 123°23'1423.0
2017-Jan-07 07:33N 46°10' W 123°03'7107.7
2017-Jan-07 07:29N 46°05' W 122°56'291134.5
2017-Jan-07 07:28N 45°37' W 122°48'3538.3
2017-Jan-07 06:33N 46°10' W 123°03'7427.2
2017-Jan-07 06:32N 46°05' W 122°56'291290.5
2017-Jan-07 06:31N 45°37' W 122°48'3536.3
2017-Jan-07 05:33N 46°10' W 123°03'7372.2
2017-Jan-07 05:32N 46°05' W 122°56'29394.0
2017-Jan-07 05:28N 45°37' W 122°48'  

Dump ship's entire track history